<?xml version="1.0" encoding="UTF-8" standalone="no" ?>
<gpx xmlns="http://www.topografix.com/GPX/1/1" xmlns:xsi="http://www.w3.org/2001/XMLSchema-instance" xsi:schemaLocation="http://www.topografix.com/GPX/1/1 http://www.topografix.com/GPX/1/1/gpx.xsd" version="1.1" creator="VisuGPX - https://www.visugpx.com">
  <metadata>
    <name>GR8S2_BarreMontsLesSables</name>
    <desc><![CDATA[gnerando idor: 12420232_12420290_12420300_12420307]]></desc>
  </metadata>
  <trk>
    <name><![CDATA[GR8S2J4_MFLaTantouilleLesSables_19km_-12420307]]></name>
    <extensions>
      <line xmlns="http://www.topografix.com/GPX/gpx_style/0/2">
        <color>0000FF</color>
        <width>4</width>
      </line>
    </extensions>
    <trkseg>
      <trkpt lat="46.56125" lon="-1.8109">
        <ele>11</ele>
        <time>2023-10-30T14:32:35Z</time>
      </trkpt>
      <trkpt lat="46.56195" lon="-1.8109">
        <ele>15</ele>
        <time>2023-10-30T14:34:08Z</time>
      </trkpt>
      <trkpt lat="46.56257" lon="-1.81007">
        <ele>13</ele>
        <time>2023-10-30T14:36:01Z</time>
      </trkpt>
      <trkpt lat="46.56294" lon="-1.80987">
        <ele>11</ele>
        <time>2023-10-30T14:36:54Z</time>
      </trkpt>
      <trkpt lat="46.56343" lon="-1.81011">
        <ele>11</ele>
        <time>2023-10-30T14:38:03Z</time>
      </trkpt>
      <trkpt lat="46.56442" lon="-1.81185">
        <ele>11</ele>
        <time>2023-10-30T14:41:30Z</time>
      </trkpt>
      <trkpt lat="46.56484" lon="-1.81204">
        <ele>8</ele>
        <time>2023-10-30T14:42:28Z</time>
      </trkpt>
      <trkpt lat="46.56545" lon="-1.81133">
        <ele>1</ele>
        <time>2023-10-30T14:44:13Z</time>
      </trkpt>
      <trkpt lat="46.56572" lon="-1.81086">
        <ele>2</ele>
        <time>2023-10-30T14:45:09Z</time>
      </trkpt>
      <trkpt lat="46.56597" lon="-1.81058">
        <ele>2.5</ele>
        <time>2023-10-30T14:45:51Z</time>
      </trkpt>
      <trkpt lat="46.56625" lon="-1.80998">
        <ele>2</ele>
        <time>2023-10-30T14:46:58Z</time>
      </trkpt>
      <trkpt lat="46.56667" lon="-1.80953">
        <ele>-1</ele>
        <time>2023-10-30T14:48:07Z</time>
      </trkpt>
      <trkpt lat="46.56721" lon="-1.80951">
        <ele>2</ele>
        <time>2023-10-30T14:49:19Z</time>
      </trkpt>
      <trkpt lat="46.56811" lon="-1.8083">
        <ele>1</ele>
        <time>2023-10-30T14:52:03Z</time>
      </trkpt>
      <trkpt lat="46.5692" lon="-1.80966">
        <ele>1</ele>
        <time>2023-10-30T14:55:14Z</time>
      </trkpt>
      <trkpt lat="46.57088" lon="-1.80891">
        <ele>1.2</ele>
        <time>2023-10-30T14:59:09Z</time>
      </trkpt>
      <trkpt lat="46.57145" lon="-1.81034">
        <ele>1</ele>
        <time>2023-10-30T15:01:41Z</time>
      </trkpt>
      <trkpt lat="46.57128" lon="-1.8109">
        <ele>1</ele>
        <time>2023-10-30T15:02:37Z</time>
      </trkpt>
      <trkpt lat="46.57163" lon="-1.81157">
        <ele>2</ele>
        <time>2023-10-30T15:03:54Z</time>
      </trkpt>
      <trkpt lat="46.57257" lon="-1.81264">
        <ele>1</ele>
        <time>2023-10-30T15:06:33Z</time>
      </trkpt>
      <trkpt lat="46.57227" lon="-1.81343">
        <ele>2</ele>
        <time>2023-10-30T15:07:56Z</time>
      </trkpt>
      <trkpt lat="46.57305" lon="-1.81343">
        <ele>1</ele>
        <time>2023-10-30T15:09:40Z</time>
      </trkpt>
      <trkpt lat="46.57421" lon="-1.81281">
        <ele>1</ele>
        <time>2023-10-30T15:12:25Z</time>
      </trkpt>
      <trkpt lat="46.57567" lon="-1.81099">
        <ele>1</ele>
        <time>2023-10-30T15:16:42Z</time>
      </trkpt>
      <trkpt lat="46.57656" lon="-1.81043">
        <ele>1</ele>
        <time>2023-10-30T15:18:51Z</time>
      </trkpt>
      <trkpt lat="46.57694" lon="-1.80985">
        <ele>1</ele>
        <time>2023-10-30T15:20:04Z</time>
      </trkpt>
      <trkpt lat="46.57758" lon="-1.80989">
        <ele>2</ele>
        <time>2023-10-30T15:21:30Z</time>
      </trkpt>
      <trkpt lat="46.5814" lon="-1.80706">
        <ele>2</ele>
        <time>2023-10-30T15:31:02Z</time>
      </trkpt>
      <trkpt lat="46.58176" lon="-1.8065">
        <ele>3</ele>
        <time>2023-10-30T15:32:12Z</time>
      </trkpt>
      <trkpt lat="46.58159" lon="-1.80588">
        <ele>2</ele>
        <time>2023-10-30T15:33:14Z</time>
      </trkpt>
      <trkpt lat="46.58147" lon="-1.80423">
        <ele>3</ele>
        <time>2023-10-30T15:35:46Z</time>
      </trkpt>
      <trkpt lat="46.58095" lon="-1.8014">
        <ele>4</ele>
        <time>2023-10-30T15:40:14Z</time>
      </trkpt>
      <trkpt lat="46.58154" lon="-1.80073">
        <ele>6</ele>
        <time>2023-10-30T15:41:54Z</time>
      </trkpt>
      <trkpt lat="46.58123" lon="-1.79936">
        <ele>5</ele>
        <time>2023-10-30T15:44:07Z</time>
      </trkpt>
      <trkpt lat="46.58081" lon="-1.79897">
        <ele>4</ele>
        <time>2023-10-30T15:45:13Z</time>
      </trkpt>
      <trkpt lat="46.58023" lon="-1.79678">
        <ele>3</ele>
        <time>2023-10-30T15:48:48Z</time>
      </trkpt>
      <trkpt lat="46.58027" lon="-1.79642">
        <ele>3</ele>
        <time>2023-10-30T15:49:22Z</time>
      </trkpt>
      <trkpt lat="46.57979" lon="-1.79554">
        <ele>5</ele>
        <time>2023-10-30T15:51:05Z</time>
      </trkpt>
      <trkpt lat="46.57957" lon="-1.79485">
        <ele>4</ele>
        <time>2023-10-30T15:52:15Z</time>
      </trkpt>
      <trkpt lat="46.57961" lon="-1.79444">
        <ele>5</ele>
        <time>2023-10-30T15:52:53Z</time>
      </trkpt>
      <trkpt lat="46.57989" lon="-1.79374">
        <ele>6</ele>
        <time>2023-10-30T15:54:07Z</time>
      </trkpt>
      <trkpt lat="46.57974" lon="-1.79298">
        <ele>7</ele>
        <time>2023-10-30T15:55:19Z</time>
      </trkpt>
      <trkpt lat="46.57918" lon="-1.79309">
        <ele>6</ele>
        <time>2023-10-30T15:56:35Z</time>
      </trkpt>
      <trkpt lat="46.57831" lon="-1.79228">
        <ele>8</ele>
        <time>2023-10-30T15:58:53Z</time>
      </trkpt>
      <trkpt lat="46.57694" lon="-1.79163">
        <ele>8</ele>
        <time>2023-10-30T16:02:05Z</time>
      </trkpt>
      <trkpt lat="46.57604" lon="-1.792">
        <ele>6</ele>
        <time>2023-10-30T16:04:10Z</time>
      </trkpt>
      <trkpt lat="46.57538" lon="-1.79105">
        <ele>5</ele>
        <time>2023-10-30T16:06:14Z</time>
      </trkpt>
      <trkpt lat="46.57464" lon="-1.79065">
        <ele>4</ele>
        <time>2023-10-30T16:07:59Z</time>
      </trkpt>
      <trkpt lat="46.57293" lon="-1.79183">
        <ele>1</ele>
        <time>2023-10-30T16:12:12Z</time>
      </trkpt>
      <trkpt lat="46.57281" lon="-1.7932">
        <ele>2.5</ele>
        <time>2023-10-30T16:14:18Z</time>
      </trkpt>
      <trkpt lat="46.57303" lon="-1.79429">
        <ele>1</ele>
        <time>2023-10-30T16:16:02Z</time>
      </trkpt>
      <trkpt lat="46.57294" lon="-1.7956">
        <ele>1</ele>
        <time>2023-10-30T16:18:03Z</time>
      </trkpt>
      <trkpt lat="46.57005" lon="-1.79683">
        <ele>1</ele>
        <time>2023-10-30T16:24:45Z</time>
      </trkpt>
      <trkpt lat="46.56955" lon="-1.79738">
        <ele>2</ele>
        <time>2023-10-30T16:26:09Z</time>
      </trkpt>
      <trkpt lat="46.56929" lon="-1.79809">
        <ele>3</ele>
        <time>2023-10-30T16:27:23Z</time>
      </trkpt>
      <trkpt lat="46.56936" lon="-1.7985">
        <ele>2</ele>
        <time>2023-10-30T16:28:01Z</time>
      </trkpt>
      <trkpt lat="46.56868" lon="-1.79927">
        <ele>2</ele>
        <time>2023-10-30T16:29:56Z</time>
      </trkpt>
      <trkpt lat="46.56843" lon="-1.79899">
        <ele>2</ele>
        <time>2023-10-30T16:30:38Z</time>
      </trkpt>
      <trkpt lat="46.56756" lon="-1.79582">
        <ele>2.8</ele>
        <time>2023-10-30T16:35:52Z</time>
      </trkpt>
      <trkpt lat="46.56694" lon="-1.79597">
        <ele>1</ele>
        <time>2023-10-30T16:37:15Z</time>
      </trkpt>
      <trkpt lat="46.56662" lon="-1.79502">
        <ele>1</ele>
        <time>2023-10-30T16:38:52Z</time>
      </trkpt>
      <trkpt lat="46.56431" lon="-1.795">
        <ele>1</ele>
        <time>2023-10-30T16:44:01Z</time>
      </trkpt>
      <trkpt lat="46.56414" lon="-1.79571">
        <ele>1</ele>
        <time>2023-10-30T16:45:10Z</time>
      </trkpt>
      <trkpt lat="46.56259" lon="-1.79554">
        <ele>1.7</ele>
        <time>2023-10-30T16:48:37Z</time>
      </trkpt>
      <trkpt lat="46.5633" lon="-1.79367">
        <ele>2.1</ele>
        <time>2023-10-30T16:51:53Z</time>
      </trkpt>
      <trkpt lat="46.56274" lon="-1.79311">
        <ele>1</ele>
        <time>2023-10-30T16:53:24Z</time>
      </trkpt>
      <trkpt lat="46.56219" lon="-1.79174">
        <ele>2</ele>
        <time>2023-10-30T16:55:49Z</time>
      </trkpt>
      <trkpt lat="46.56215" lon="-1.79116">
        <ele>1</ele>
        <time>2023-10-30T16:56:43Z</time>
      </trkpt>
      <trkpt lat="46.56232" lon="-1.79047">
        <ele>2</ele>
        <time>2023-10-30T16:57:50Z</time>
      </trkpt>
      <trkpt lat="46.56178" lon="-1.79007">
        <ele>1</ele>
        <time>2023-10-30T16:59:11Z</time>
      </trkpt>
      <trkpt lat="46.56138" lon="-1.78908">
        <ele>1</ele>
        <time>2023-10-30T17:00:56Z</time>
      </trkpt>
      <trkpt lat="46.56076" lon="-1.78882">
        <ele>1</ele>
        <time>2023-10-30T17:02:22Z</time>
      </trkpt>
      <trkpt lat="46.55945" lon="-1.78934">
        <ele>1</ele>
        <time>2023-10-30T17:05:24Z</time>
      </trkpt>
      <trkpt lat="46.55878" lon="-1.78889">
        <ele>2.6</ele>
        <time>2023-10-30T17:07:02Z</time>
      </trkpt>
      <trkpt lat="46.55846" lon="-1.78833">
        <ele>-1</ele>
        <time>2023-10-30T17:08:09Z</time>
      </trkpt>
      <trkpt lat="46.55846" lon="-1.78798">
        <ele>-1</ele>
        <time>2023-10-30T17:08:41Z</time>
      </trkpt>
      <trkpt lat="46.55852" lon="-1.78801">
        <ele>-1</ele>
        <time>2023-10-30T17:08:50Z</time>
      </trkpt>
      <trkpt lat="46.55787" lon="-1.78835">
        <ele>2</ele>
        <time>2023-10-30T17:10:22Z</time>
      </trkpt>
      <trkpt lat="46.55561" lon="-1.78923">
        <ele>2</ele>
        <time>2023-10-30T17:15:34Z</time>
      </trkpt>
      <trkpt lat="46.55524" lon="-1.78964">
        <ele>2</ele>
        <time>2023-10-30T17:16:36Z</time>
      </trkpt>
      <trkpt lat="46.55469" lon="-1.79101">
        <ele>2</ele>
        <time>2023-10-30T17:19:02Z</time>
      </trkpt>
      <trkpt lat="46.55314" lon="-1.78854">
        <ele>1</ele>
        <time>2023-10-30T17:24:08Z</time>
      </trkpt>
      <trkpt lat="46.55272" lon="-1.78826">
        <ele>1</ele>
        <time>2023-10-30T17:25:10Z</time>
      </trkpt>
      <trkpt lat="46.55233" lon="-1.78878">
        <ele>3</ele>
        <time>2023-10-30T17:26:21Z</time>
      </trkpt>
      <trkpt lat="46.54789" lon="-1.78792">
        <ele>2</ele>
        <time>2023-10-30T17:36:18Z</time>
      </trkpt>
      <trkpt lat="46.54693" lon="-1.78833">
        <ele>1</ele>
        <time>2023-10-30T17:38:32Z</time>
      </trkpt>
      <trkpt lat="46.54625" lon="-1.78936">
        <ele>1.7</ele>
        <time>2023-10-30T17:40:43Z</time>
      </trkpt>
      <trkpt lat="46.5451" lon="-1.7918">
        <ele>2</ele>
        <time>2023-10-30T17:45:15Z</time>
      </trkpt>
      <trkpt lat="46.54503" lon="-1.79236">
        <ele>1</ele>
        <time>2023-10-30T17:46:07Z</time>
      </trkpt>
      <trkpt lat="46.54419" lon="-1.79378">
        <ele>1</ele>
        <time>2023-10-30T17:48:59Z</time>
      </trkpt>
      <trkpt lat="46.54336" lon="-1.79565">
        <ele>2</ele>
        <time>2023-10-30T17:52:23Z</time>
      </trkpt>
      <trkpt lat="46.54292" lon="-1.79635">
        <ele>4</ele>
        <time>2023-10-30T17:53:50Z</time>
      </trkpt>
      <trkpt lat="46.54268" lon="-1.79726">
        <ele>5</ele>
        <time>2023-10-30T17:55:19Z</time>
      </trkpt>
      <trkpt lat="46.54222" lon="-1.79786">
        <ele>5</ele>
        <time>2023-10-30T17:56:42Z</time>
      </trkpt>
      <trkpt lat="46.54155" lon="-1.79932">
        <ele>4</ele>
        <time>2023-10-30T17:59:23Z</time>
      </trkpt>
      <trkpt lat="46.54103" lon="-1.80073">
        <ele>3</ele>
        <time>2023-10-30T18:01:50Z</time>
      </trkpt>
      <trkpt lat="46.54014" lon="-1.80221">
        <ele>1</ele>
        <time>2023-10-30T18:04:50Z</time>
      </trkpt>
      <trkpt lat="46.53933" lon="-1.80318">
        <ele>1</ele>
        <time>2023-10-30T18:07:10Z</time>
      </trkpt>
      <trkpt lat="46.53814" lon="-1.80421">
        <ele>2.1</ele>
        <time>2023-10-30T18:10:15Z</time>
      </trkpt>
      <trkpt lat="46.53623" lon="-1.80519">
        <ele>1</ele>
        <time>2023-10-30T18:14:45Z</time>
      </trkpt>
      <trkpt lat="46.53433" lon="-1.80659">
        <ele>1</ele>
        <time>2023-10-30T18:19:30Z</time>
      </trkpt>
      <trkpt lat="46.53421" lon="-1.80618">
        <ele>1</ele>
        <time>2023-10-30T18:20:11Z</time>
      </trkpt>
      <trkpt lat="46.53031" lon="-1.80899">
        <ele>1</ele>
        <time>2023-10-30T18:29:51Z</time>
      </trkpt>
      <trkpt lat="46.52915" lon="-1.80876">
        <ele>2</ele>
        <time>2023-10-30T18:32:28Z</time>
      </trkpt>
      <trkpt lat="46.52876" lon="-1.80788">
        <ele>4</ele>
        <time>2023-10-30T18:34:04Z</time>
      </trkpt>
      <trkpt lat="46.5282" lon="-1.80745">
        <ele>4</ele>
        <time>2023-10-30T18:35:28Z</time>
      </trkpt>
      <trkpt lat="46.52783" lon="-1.80592">
        <ele>4</ele>
        <time>2023-10-30T18:37:57Z</time>
      </trkpt>
      <trkpt lat="46.52773" lon="-1.80622">
        <ele>4</ele>
        <time>2023-10-30T18:38:28Z</time>
      </trkpt>
      <trkpt lat="46.52671" lon="-1.80672">
        <ele>1</ele>
        <time>2023-10-30T18:40:51Z</time>
      </trkpt>
      <trkpt lat="46.52608" lon="-1.80659">
        <ele>3</ele>
        <time>2023-10-30T18:42:16Z</time>
      </trkpt>
      <trkpt lat="46.52517" lon="-1.80683">
        <ele>4</ele>
        <time>2023-10-30T18:44:20Z</time>
      </trkpt>
      <trkpt lat="46.5251" lon="-1.80764">
        <ele>2</ele>
        <time>2023-10-30T18:45:35Z</time>
      </trkpt>
      <trkpt lat="46.52439" lon="-1.8076">
        <ele>1</ele>
        <time>2023-10-30T18:47:10Z</time>
      </trkpt>
      <trkpt lat="46.52419" lon="-1.81067">
        <ele>6</ele>
        <time>2023-10-30T18:51:53Z</time>
      </trkpt>
      <trkpt lat="46.52467" lon="-1.81133">
        <ele>9</ele>
        <time>2023-10-30T18:53:21Z</time>
      </trkpt>
      <trkpt lat="46.52551" lon="-1.81301">
        <ele>14</ele>
        <time>2023-10-30T18:56:32Z</time>
      </trkpt>
      <trkpt lat="46.52572" lon="-1.81425">
        <ele>14</ele>
        <time>2023-10-30T18:58:29Z</time>
      </trkpt>
      <trkpt lat="46.52568" lon="-1.81723">
        <ele>13</ele>
        <time>2023-10-30T19:03:02Z</time>
      </trkpt>
      <trkpt lat="46.52602" lon="-1.81914">
        <ele>9</ele>
        <time>2023-10-30T19:06:04Z</time>
      </trkpt>
      <trkpt lat="46.52653" lon="-1.82103">
        <ele>6</ele>
        <time>2023-10-30T19:09:10Z</time>
      </trkpt>
      <trkpt lat="46.52662" lon="-1.82206">
        <ele>3</ele>
        <time>2023-10-30T19:10:45Z</time>
      </trkpt>
      <trkpt lat="46.52271" lon="-1.82088">
        <ele>4</ele>
        <time>2023-10-30T19:19:38Z</time>
      </trkpt>
      <trkpt lat="46.52176" lon="-1.82079">
        <ele>3</ele>
        <time>2023-10-30T19:21:45Z</time>
      </trkpt>
      <trkpt lat="46.52106" lon="-1.82052">
        <ele>4</ele>
        <time>2023-10-30T19:23:22Z</time>
      </trkpt>
      <trkpt lat="46.52104" lon="-1.82013">
        <ele>6</ele>
        <time>2023-10-30T19:23:58Z</time>
      </trkpt>
      <trkpt lat="46.52126" lon="-1.81979">
        <ele>8</ele>
        <time>2023-10-30T19:24:41Z</time>
      </trkpt>
      <trkpt lat="46.52098" lon="-1.81957">
        <ele>8</ele>
        <time>2023-10-30T19:25:23Z</time>
      </trkpt>
      <trkpt lat="46.52039" lon="-1.81938">
        <ele>7</ele>
        <time>2023-10-30T19:26:44Z</time>
      </trkpt>
      <trkpt lat="46.5199" lon="-1.81895">
        <ele>7</ele>
        <time>2023-10-30T19:28:00Z</time>
      </trkpt>
      <trkpt lat="46.51809" lon="-1.81833">
        <ele>5</ele>
        <time>2023-10-30T19:32:08Z</time>
      </trkpt>
      <trkpt lat="46.51714" lon="-1.81852">
        <ele>4</ele>
        <time>2023-10-30T19:34:16Z</time>
      </trkpt>
      <trkpt lat="46.51581" lon="-1.81794">
        <ele>6</ele>
        <time>2023-10-30T19:37:22Z</time>
      </trkpt>
      <trkpt lat="46.5146" lon="-1.818">
        <ele>6</ele>
        <time>2023-10-30T19:40:03Z</time>
      </trkpt>
      <trkpt lat="46.51366" lon="-1.81837">
        <ele>5</ele>
        <time>2023-10-30T19:42:13Z</time>
      </trkpt>
      <trkpt lat="46.51255" lon="-1.81768">
        <ele>9</ele>
        <time>2023-10-30T19:44:54Z</time>
      </trkpt>
      <trkpt lat="46.51166" lon="-1.81749">
        <ele>8</ele>
        <time>2023-10-30T19:46:54Z</time>
      </trkpt>
      <trkpt lat="46.51119" lon="-1.8177">
        <ele>7</ele>
        <time>2023-10-30T19:48:00Z</time>
      </trkpt>
      <trkpt lat="46.51063" lon="-1.81833">
        <ele>3</ele>
        <time>2023-10-30T19:49:34Z</time>
      </trkpt>
      <trkpt lat="46.51026" lon="-1.81861">
        <ele>3</ele>
        <time>2023-10-30T19:50:30Z</time>
      </trkpt>
      <trkpt lat="46.50942" lon="-1.81811">
        <ele>3</ele>
        <time>2023-10-30T19:52:31Z</time>
      </trkpt>
      <trkpt lat="46.50892" lon="-1.81792">
        <ele>2</ele>
        <time>2023-10-30T19:53:40Z</time>
      </trkpt>
      <trkpt lat="46.5083" lon="-1.81738">
        <ele>2</ele>
        <time>2023-10-30T19:55:17Z</time>
      </trkpt>
      <trkpt lat="46.50638" lon="-1.81695">
        <ele>2</ele>
        <time>2023-10-30T19:59:36Z</time>
      </trkpt>
      <trkpt lat="46.50506" lon="-1.81586">
        <ele>5</ele>
        <time>2023-10-30T20:02:59Z</time>
      </trkpt>
      <trkpt lat="46.50466" lon="-1.8156">
        <ele>5</ele>
        <time>2023-10-30T20:03:57Z</time>
      </trkpt>
      <trkpt lat="46.50435" lon="-1.81528">
        <ele>5</ele>
        <time>2023-10-30T20:04:48Z</time>
      </trkpt>
      <trkpt lat="46.50407" lon="-1.8156">
        <ele>3</ele>
        <time>2023-10-30T20:05:35Z</time>
      </trkpt>
      <trkpt lat="46.503" lon="-1.81515">
        <ele>4</ele>
        <time>2023-10-30T20:08:04Z</time>
      </trkpt>
      <trkpt lat="46.50242" lon="-1.81466">
        <ele>4</ele>
        <time>2023-10-30T20:09:33Z</time>
      </trkpt>
      <trkpt lat="46.50187" lon="-1.81451">
        <ele>5</ele>
        <time>2023-10-30T20:10:48Z</time>
      </trkpt>
      <trkpt lat="46.50081" lon="-1.81481">
        <ele>3</ele>
        <time>2023-10-30T20:13:12Z</time>
      </trkpt>
      <trkpt lat="46.49908" lon="-1.81461">
        <ele>3</ele>
        <time>2023-10-30T20:17:04Z</time>
      </trkpt>
      <trkpt lat="46.49818" lon="-1.81425">
        <ele>3</ele>
        <time>2023-10-30T20:19:08Z</time>
      </trkpt>
      <trkpt lat="46.49694" lon="-1.81395">
        <ele>3</ele>
        <time>2023-10-30T20:21:56Z</time>
      </trkpt>
      <trkpt lat="46.49679" lon="-1.81335">
        <ele>6</ele>
        <time>2023-10-30T20:22:55Z</time>
      </trkpt>
      <trkpt lat="46.4961" lon="-1.81307">
        <ele>7</ele>
        <time>2023-10-30T20:24:30Z</time>
      </trkpt>
      <trkpt lat="46.49478" lon="-1.81217">
        <ele>8</ele>
        <time>2023-10-30T20:27:45Z</time>
      </trkpt>
      <trkpt lat="46.49427" lon="-1.81193">
        <ele>7</ele>
        <time>2023-10-30T20:28:57Z</time>
      </trkpt>
      <trkpt lat="46.49226" lon="-1.80925">
        <ele>5</ele>
        <time>2023-10-30T20:35:01Z</time>
      </trkpt>
      <trkpt lat="46.49211" lon="-1.80852">
        <ele>4</ele>
        <time>2023-10-30T20:36:11Z</time>
      </trkpt>
      <trkpt lat="46.49224" lon="-1.80751">
        <ele>6</ele>
        <time>2023-10-30T20:37:45Z</time>
      </trkpt>
      <trkpt lat="46.49212" lon="-1.80691">
        <ele>7</ele>
        <time>2023-10-30T20:38:42Z</time>
      </trkpt>
      <trkpt lat="46.49144" lon="-1.80601">
        <ele>7</ele>
        <time>2023-10-30T20:40:45Z</time>
      </trkpt>
      <trkpt lat="46.49025" lon="-1.80344">
        <ele>11</ele>
        <time>2023-10-30T20:45:30Z</time>
      </trkpt>
      <trkpt lat="46.49007" lon="-1.80268">
        <ele>12</ele>
        <time>2023-10-30T20:46:44Z</time>
      </trkpt>
      <trkpt lat="46.49001" lon="-1.80155">
        <ele>14</ele>
        <time>2023-10-30T20:48:28Z</time>
      </trkpt>
      <trkpt lat="46.48933" lon="-1.79899">
        <ele>6</ele>
        <time>2023-10-30T20:52:40Z</time>
      </trkpt>
    </trkseg>
  </trk>
  <trk>
    <name><![CDATA[GR8S2J2_MarinesPetitPont_19.2km-12420290]]></name>
    <extensions>
      <line xmlns="http://www.topografix.com/GPX/gpx_style/0/2">
        <color>00FF00</color>
        <width>4</width>
      </line>
    </extensions>
    <trkseg>
      <trkpt lat="46.75121" lon="-2.01614">
        <ele>4</ele>
        <time>2023-10-30T14:32:57Z</time>
      </trkpt>
      <trkpt lat="46.7505" lon="-2.01535">
        <ele>4</ele>
        <time>2023-10-30T14:34:56Z</time>
      </trkpt>
      <trkpt lat="46.74932" lon="-2.01353">
        <ele>7</ele>
        <time>2023-10-30T14:38:45Z</time>
      </trkpt>
      <trkpt lat="46.74647" lon="-2.01177">
        <ele>8</ele>
        <time>2023-10-30T14:45:38Z</time>
      </trkpt>
      <trkpt lat="46.74506" lon="-2.01005">
        <ele>5</ele>
        <time>2023-10-30T14:49:43Z</time>
      </trkpt>
      <trkpt lat="46.74344" lon="-2.00863">
        <ele>3</ele>
        <time>2023-10-30T14:53:56Z</time>
      </trkpt>
      <trkpt lat="46.74244" lon="-2.00711">
        <ele>2</ele>
        <time>2023-10-30T14:57:08Z</time>
      </trkpt>
      <trkpt lat="46.74247" lon="-2.0057">
        <ele>3</ele>
        <time>2023-10-30T14:59:17Z</time>
      </trkpt>
      <trkpt lat="46.7426" lon="-2.00544">
        <ele>3</ele>
        <time>2023-10-30T14:59:47Z</time>
      </trkpt>
      <trkpt lat="46.74335" lon="-2.00548">
        <ele>3</ele>
        <time>2023-10-30T15:01:27Z</time>
      </trkpt>
      <trkpt lat="46.74399" lon="-2.00492">
        <ele>1</ele>
        <time>2023-10-30T15:03:06Z</time>
      </trkpt>
      <trkpt lat="46.74555" lon="-2.00276">
        <ele>2</ele>
        <time>2023-10-30T15:07:53Z</time>
      </trkpt>
      <trkpt lat="46.74715" lon="-2.00237">
        <ele>3</ele>
        <time>2023-10-30T15:11:30Z</time>
      </trkpt>
      <trkpt lat="46.74747" lon="-2.00198">
        <ele>3</ele>
        <time>2023-10-30T15:12:26Z</time>
      </trkpt>
      <trkpt lat="46.74865" lon="-1.99984">
        <ele>3</ele>
        <time>2023-10-30T15:16:37Z</time>
      </trkpt>
      <trkpt lat="46.7489" lon="-1.99902">
        <ele>2</ele>
        <time>2023-10-30T15:17:59Z</time>
      </trkpt>
      <trkpt lat="46.74894" lon="-1.99821">
        <ele>2</ele>
        <time>2023-10-30T15:19:13Z</time>
      </trkpt>
      <trkpt lat="46.74838" lon="-1.99486">
        <ele>4</ele>
        <time>2023-10-30T15:24:28Z</time>
      </trkpt>
      <trkpt lat="46.74791" lon="-1.99471">
        <ele>4</ele>
        <time>2023-10-30T15:25:33Z</time>
      </trkpt>
      <trkpt lat="46.74769" lon="-1.99419">
        <ele>3</ele>
        <time>2023-10-30T15:26:28Z</time>
      </trkpt>
      <trkpt lat="46.74696" lon="-1.99381">
        <ele>2</ele>
        <time>2023-10-30T15:28:12Z</time>
      </trkpt>
      <trkpt lat="46.74632" lon="-1.9934">
        <ele>2</ele>
        <time>2023-10-30T15:29:45Z</time>
      </trkpt>
      <trkpt lat="46.74582" lon="-1.99241">
        <ele>1</ele>
        <time>2023-10-30T15:31:38Z</time>
      </trkpt>
      <trkpt lat="46.74547" lon="-1.99224">
        <ele>2</ele>
        <time>2023-10-30T15:32:27Z</time>
      </trkpt>
      <trkpt lat="46.74434" lon="-1.99209">
        <ele>4</ele>
        <time>2023-10-30T15:34:58Z</time>
      </trkpt>
      <trkpt lat="46.7434" lon="-1.9914">
        <ele>4</ele>
        <time>2023-10-30T15:37:19Z</time>
      </trkpt>
      <trkpt lat="46.74431" lon="-1.98997">
        <ele>4</ele>
        <time>2023-10-30T15:40:17Z</time>
      </trkpt>
      <trkpt lat="46.7443" lon="-1.98943">
        <ele>4</ele>
        <time>2023-10-30T15:41:07Z</time>
      </trkpt>
      <trkpt lat="46.74359" lon="-1.98842">
        <ele>4</ele>
        <time>2023-10-30T15:43:19Z</time>
      </trkpt>
      <trkpt lat="46.74291" lon="-1.98801">
        <ele>4</ele>
        <time>2023-10-30T15:44:57Z</time>
      </trkpt>
      <trkpt lat="46.74227" lon="-1.98793">
        <ele>4</ele>
        <time>2023-10-30T15:46:23Z</time>
      </trkpt>
      <trkpt lat="46.74109" lon="-1.98733">
        <ele>3</ele>
        <time>2023-10-30T15:49:09Z</time>
      </trkpt>
      <trkpt lat="46.74137" lon="-1.98827">
        <ele>4</ele>
        <time>2023-10-30T15:50:43Z</time>
      </trkpt>
      <trkpt lat="46.74008" lon="-1.98941">
        <ele>5</ele>
        <time>2023-10-30T15:54:04Z</time>
      </trkpt>
      <trkpt lat="46.73972" lon="-1.98857">
        <ele>5</ele>
        <time>2023-10-30T15:55:35Z</time>
      </trkpt>
      <trkpt lat="46.73944" lon="-1.9884">
        <ele>5</ele>
        <time>2023-10-30T15:56:16Z</time>
      </trkpt>
      <trkpt lat="46.73881" lon="-1.98737">
        <ele>5</ele>
        <time>2023-10-30T15:58:22Z</time>
      </trkpt>
      <trkpt lat="46.73835" lon="-1.98752">
        <ele>5</ele>
        <time>2023-10-30T15:59:25Z</time>
      </trkpt>
      <trkpt lat="46.73799" lon="-1.98816">
        <ele>6</ele>
        <time>2023-10-30T16:00:40Z</time>
      </trkpt>
      <trkpt lat="46.73733" lon="-1.98827">
        <ele>7</ele>
        <time>2023-10-30T16:02:09Z</time>
      </trkpt>
      <trkpt lat="46.73727" lon="-1.98791">
        <ele>6</ele>
        <time>2023-10-30T16:02:43Z</time>
      </trkpt>
      <trkpt lat="46.73681" lon="-1.9873">
        <ele>6</ele>
        <time>2023-10-30T16:04:06Z</time>
      </trkpt>
      <trkpt lat="46.73671" lon="-1.98655">
        <ele>7</ele>
        <time>2023-10-30T16:05:16Z</time>
      </trkpt>
      <trkpt lat="46.7369" lon="-1.98555">
        <ele>6</ele>
        <time>2023-10-30T16:06:51Z</time>
      </trkpt>
      <trkpt lat="46.73619" lon="-1.98477">
        <ele>6</ele>
        <time>2023-10-30T16:08:49Z</time>
      </trkpt>
      <trkpt lat="46.73571" lon="-1.9851">
        <ele>5</ele>
        <time>2023-10-30T16:10:00Z</time>
      </trkpt>
      <trkpt lat="46.73505" lon="-1.98359">
        <ele>7</ele>
        <time>2023-10-30T16:12:44Z</time>
      </trkpt>
      <trkpt lat="46.73408" lon="-1.98267">
        <ele>12</ele>
        <time>2023-10-30T16:15:18Z</time>
      </trkpt>
      <trkpt lat="46.73331" lon="-1.98239">
        <ele>12</ele>
        <time>2023-10-30T16:17:04Z</time>
      </trkpt>
      <trkpt lat="46.73224" lon="-1.98177">
        <ele>16</ele>
        <time>2023-10-30T16:19:38Z</time>
      </trkpt>
      <trkpt lat="46.73125" lon="-1.97971">
        <ele>13</ele>
        <time>2023-10-30T16:23:28Z</time>
      </trkpt>
      <trkpt lat="46.73034" lon="-1.97943">
        <ele>13</ele>
        <time>2023-10-30T16:25:32Z</time>
      </trkpt>
      <trkpt lat="46.72682" lon="-1.97525">
        <ele>9</ele>
        <time>2023-10-30T16:35:38Z</time>
      </trkpt>
      <trkpt lat="46.72612" lon="-1.97505">
        <ele>11</ele>
        <time>2023-10-30T16:37:13Z</time>
      </trkpt>
      <trkpt lat="46.72534" lon="-1.9746">
        <ele>12</ele>
        <time>2023-10-30T16:39:05Z</time>
      </trkpt>
      <trkpt lat="46.72472" lon="-1.97389">
        <ele>11</ele>
        <time>2023-10-30T16:40:50Z</time>
      </trkpt>
      <trkpt lat="46.72343" lon="-1.97096">
        <ele>10</ele>
        <time>2023-10-30T16:46:09Z</time>
      </trkpt>
      <trkpt lat="46.72206" lon="-1.96825">
        <ele>14</ele>
        <time>2023-10-30T16:51:17Z</time>
      </trkpt>
      <trkpt lat="46.71988" lon="-1.97115">
        <ele>11</ele>
        <time>2023-10-30T16:57:50Z</time>
      </trkpt>
      <trkpt lat="46.71863" lon="-1.9725">
        <ele>11</ele>
        <time>2023-10-30T17:01:18Z</time>
      </trkpt>
      <trkpt lat="46.7176" lon="-1.9749">
        <ele>9</ele>
        <time>2023-10-30T17:05:37Z</time>
      </trkpt>
      <trkpt lat="46.71732" lon="-1.97576">
        <ele>8</ele>
        <time>2023-10-30T17:07:04Z</time>
      </trkpt>
      <trkpt lat="46.71598" lon="-1.97518">
        <ele>11</ele>
        <time>2023-10-30T17:10:11Z</time>
      </trkpt>
      <trkpt lat="46.71556" lon="-1.9755">
        <ele>11</ele>
        <time>2023-10-30T17:11:14Z</time>
      </trkpt>
      <trkpt lat="46.71501" lon="-1.97567">
        <ele>10</ele>
        <time>2023-10-30T17:12:29Z</time>
      </trkpt>
      <trkpt lat="46.71473" lon="-1.97606">
        <ele>9</ele>
        <time>2023-10-30T17:13:20Z</time>
      </trkpt>
      <trkpt lat="46.71441" lon="-1.97763">
        <ele>5</ele>
        <time>2023-10-30T17:15:50Z</time>
      </trkpt>
      <trkpt lat="46.71267" lon="-1.97857">
        <ele>4</ele>
        <time>2023-10-30T17:19:58Z</time>
      </trkpt>
      <trkpt lat="46.71161" lon="-1.9796">
        <ele>6</ele>
        <time>2023-10-30T17:22:48Z</time>
      </trkpt>
      <trkpt lat="46.71157" lon="-1.97982">
        <ele>5</ele>
        <time>2023-10-30T17:23:09Z</time>
      </trkpt>
      <trkpt lat="46.7108" lon="-1.98035">
        <ele>5</ele>
        <time>2023-10-30T17:25:02Z</time>
      </trkpt>
      <trkpt lat="46.71022" lon="-1.98046">
        <ele>5</ele>
        <time>2023-10-30T17:26:20Z</time>
      </trkpt>
      <trkpt lat="46.71005" lon="-1.97943">
        <ele>9</ele>
        <time>2023-10-30T17:27:57Z</time>
      </trkpt>
      <trkpt lat="46.70949" lon="-1.97969">
        <ele>9</ele>
        <time>2023-10-30T17:29:16Z</time>
      </trkpt>
      <trkpt lat="46.70755" lon="-1.97907">
        <ele>6</ele>
        <time>2023-10-30T17:33:41Z</time>
      </trkpt>
      <trkpt lat="46.70657" lon="-1.97907">
        <ele>5</ele>
        <time>2023-10-30T17:35:52Z</time>
      </trkpt>
      <trkpt lat="46.70542" lon="-1.97928">
        <ele>4</ele>
        <time>2023-10-30T17:38:26Z</time>
      </trkpt>
      <trkpt lat="46.70483" lon="-1.97907">
        <ele>5</ele>
        <time>2023-10-30T17:39:47Z</time>
      </trkpt>
      <trkpt lat="46.70414" lon="-1.97853">
        <ele>7</ele>
        <time>2023-10-30T17:41:32Z</time>
      </trkpt>
      <trkpt lat="46.70206" lon="-1.97636">
        <ele>10</ele>
        <time>2023-10-30T17:47:13Z</time>
      </trkpt>
      <trkpt lat="46.69997" lon="-1.97351">
        <ele>12</ele>
        <time>2023-10-30T17:53:35Z</time>
      </trkpt>
      <trkpt lat="46.69899" lon="-1.97263">
        <ele>8</ele>
        <time>2023-10-30T17:56:09Z</time>
      </trkpt>
      <trkpt lat="46.6979" lon="-1.97183">
        <ele>9</ele>
        <time>2023-10-30T17:58:51Z</time>
      </trkpt>
      <trkpt lat="46.69362" lon="-1.96741">
        <ele>9</ele>
        <time>2023-10-30T18:10:31Z</time>
      </trkpt>
      <trkpt lat="46.69326" lon="-1.96675">
        <ele>10</ele>
        <time>2023-10-30T18:11:49Z</time>
      </trkpt>
      <trkpt lat="46.69307" lon="-1.96572">
        <ele>11</ele>
        <time>2023-10-30T18:13:26Z</time>
      </trkpt>
      <trkpt lat="46.69326" lon="-1.96297">
        <ele>14</ele>
        <time>2023-10-30T18:17:39Z</time>
      </trkpt>
      <trkpt lat="46.69323" lon="-1.96158">
        <ele>10</ele>
        <time>2023-10-30T18:19:46Z</time>
      </trkpt>
      <trkpt lat="46.6935" lon="-1.96111">
        <ele>6</ele>
        <time>2023-10-30T18:20:43Z</time>
      </trkpt>
      <trkpt lat="46.69421" lon="-1.96046">
        <ele>4</ele>
        <time>2023-10-30T18:22:34Z</time>
      </trkpt>
      <trkpt lat="46.6944" lon="-1.95995">
        <ele>3</ele>
        <time>2023-10-30T18:23:28Z</time>
      </trkpt>
      <trkpt lat="46.69469" lon="-1.95761">
        <ele>7</ele>
        <time>2023-10-30T18:27:05Z</time>
      </trkpt>
      <trkpt lat="46.69501" lon="-1.95591">
        <ele>8</ele>
        <time>2023-10-30T18:29:47Z</time>
      </trkpt>
      <trkpt lat="46.69557" lon="-1.95437">
        <ele>8</ele>
        <time>2023-10-30T18:32:26Z</time>
      </trkpt>
      <trkpt lat="46.69538" lon="-1.95387">
        <ele>7</ele>
        <time>2023-10-30T18:33:18Z</time>
      </trkpt>
      <trkpt lat="46.69529" lon="-1.9528">
        <ele>6</ele>
        <time>2023-10-30T18:34:57Z</time>
      </trkpt>
      <trkpt lat="46.6959" lon="-1.95203">
        <ele>8</ele>
        <time>2023-10-30T18:36:45Z</time>
      </trkpt>
      <trkpt lat="46.69687" lon="-1.94993">
        <ele>7</ele>
        <time>2023-10-30T18:40:36Z</time>
      </trkpt>
      <trkpt lat="46.69682" lon="-1.94937">
        <ele>5</ele>
        <time>2023-10-30T18:41:28Z</time>
      </trkpt>
      <trkpt lat="46.69706" lon="-1.94872">
        <ele>4</ele>
        <time>2023-10-30T18:42:36Z</time>
      </trkpt>
      <trkpt lat="46.69746" lon="-1.94913">
        <ele>6</ele>
        <time>2023-10-30T18:43:41Z</time>
      </trkpt>
      <trkpt lat="46.69772" lon="-1.94875">
        <ele>5</ele>
        <time>2023-10-30T18:44:30Z</time>
      </trkpt>
      <trkpt lat="46.69809" lon="-1.94739">
        <ele>4</ele>
        <time>2023-10-30T18:46:44Z</time>
      </trkpt>
      <trkpt lat="46.69733" lon="-1.94491">
        <ele>2</ele>
        <time>2023-10-30T18:50:53Z</time>
      </trkpt>
      <trkpt lat="46.69622" lon="-1.94274">
        <ele>2</ele>
        <time>2023-10-30T18:55:00Z</time>
      </trkpt>
      <trkpt lat="46.69641" lon="-1.94242">
        <ele>3</ele>
        <time>2023-10-30T18:55:39Z</time>
      </trkpt>
      <trkpt lat="46.69585" lon="-1.94046">
        <ele>3</ele>
        <time>2023-10-30T18:58:53Z</time>
      </trkpt>
      <trkpt lat="46.69446" lon="-1.93731">
        <ele>3</ele>
        <time>2023-10-30T19:04:36Z</time>
      </trkpt>
      <trkpt lat="46.69425" lon="-1.93617">
        <ele>2</ele>
        <time>2023-10-30T19:06:24Z</time>
      </trkpt>
      <trkpt lat="46.69472" lon="-1.93583">
        <ele>2</ele>
        <time>2023-10-30T19:07:34Z</time>
      </trkpt>
      <trkpt lat="46.69528" lon="-1.93576">
        <ele>3</ele>
        <time>2023-10-30T19:08:49Z</time>
      </trkpt>
      <trkpt lat="46.69594" lon="-1.93598">
        <ele>4</ele>
        <time>2023-10-30T19:10:20Z</time>
      </trkpt>
      <trkpt lat="46.69619" lon="-1.93443">
        <ele>4</ele>
        <time>2023-10-30T19:12:45Z</time>
      </trkpt>
      <trkpt lat="46.69524" lon="-1.9342">
        <ele>3</ele>
        <time>2023-10-30T19:14:54Z</time>
      </trkpt>
      <trkpt lat="46.69363" lon="-1.93422">
        <ele>3</ele>
        <time>2023-10-30T19:18:29Z</time>
      </trkpt>
      <trkpt lat="46.69161" lon="-1.93336">
        <ele>3</ele>
        <time>2023-10-30T19:23:10Z</time>
      </trkpt>
      <trkpt lat="46.69157" lon="-1.93381">
        <ele>4</ele>
        <time>2023-10-30T19:23:51Z</time>
      </trkpt>
      <trkpt lat="46.69111" lon="-1.93394">
        <ele>3</ele>
        <time>2023-10-30T19:24:54Z</time>
      </trkpt>
      <trkpt lat="46.69066" lon="-1.93315">
        <ele>3</ele>
        <time>2023-10-30T19:26:28Z</time>
      </trkpt>
      <trkpt lat="46.68989" lon="-1.9325">
        <ele>1</ele>
        <time>2023-10-30T19:28:26Z</time>
      </trkpt>
      <trkpt lat="46.68935" lon="-1.93252">
        <ele>1</ele>
        <time>2023-10-30T19:29:38Z</time>
      </trkpt>
      <trkpt lat="46.68792" lon="-1.9328">
        <ele>4</ele>
        <time>2023-10-30T19:32:51Z</time>
      </trkpt>
      <trkpt lat="46.68729" lon="-1.93276">
        <ele>4</ele>
        <time>2023-10-30T19:34:15Z</time>
      </trkpt>
      <trkpt lat="46.68636" lon="-1.93252">
        <ele>5</ele>
        <time>2023-10-30T19:36:21Z</time>
      </trkpt>
      <trkpt lat="46.68489" lon="-1.93096">
        <ele>3</ele>
        <time>2023-10-30T19:40:24Z</time>
      </trkpt>
      <trkpt lat="46.68401" lon="-1.93025">
        <ele>3</ele>
        <time>2023-10-30T19:42:38Z</time>
      </trkpt>
      <trkpt lat="46.68303" lon="-1.92971">
        <ele>2</ele>
        <time>2023-10-30T19:44:58Z</time>
      </trkpt>
      <trkpt lat="46.68255" lon="-1.92911">
        <ele>1</ele>
        <time>2023-10-30T19:46:22Z</time>
      </trkpt>
      <trkpt lat="46.68219" lon="-1.92808">
        <ele>3</ele>
        <time>2023-10-30T19:48:08Z</time>
      </trkpt>
      <trkpt lat="46.68183" lon="-1.92763">
        <ele>3</ele>
        <time>2023-10-30T19:49:11Z</time>
      </trkpt>
      <trkpt lat="46.68116" lon="-1.92722">
        <ele>2</ele>
        <time>2023-10-30T19:50:48Z</time>
      </trkpt>
      <trkpt lat="46.68177" lon="-1.92606">
        <ele>5</ele>
        <time>2023-10-30T19:53:02Z</time>
      </trkpt>
      <trkpt lat="46.68115" lon="-1.92512">
        <ele>6</ele>
        <time>2023-10-30T19:55:02Z</time>
      </trkpt>
      <trkpt lat="46.68053" lon="-1.92373">
        <ele>6</ele>
        <time>2023-10-30T19:57:33Z</time>
      </trkpt>
      <trkpt lat="46.67947" lon="-1.92261">
        <ele>3</ele>
        <time>2023-10-30T20:00:28Z</time>
      </trkpt>
      <trkpt lat="46.67871" lon="-1.92201">
        <ele>3</ele>
        <time>2023-10-30T20:02:23Z</time>
      </trkpt>
      <trkpt lat="46.67822" lon="-1.92062">
        <ele>3</ele>
        <time>2023-10-30T20:04:46Z</time>
      </trkpt>
      <trkpt lat="46.67685" lon="-1.91843">
        <ele>3</ele>
        <time>2023-10-30T20:09:18Z</time>
      </trkpt>
      <trkpt lat="46.67482" lon="-1.91401">
        <ele>4</ele>
        <time>2023-10-30T20:17:25Z</time>
      </trkpt>
      <trkpt lat="46.67402" lon="-1.91411">
        <ele>5</ele>
        <time>2023-10-30T20:19:12Z</time>
      </trkpt>
      <trkpt lat="46.67307" lon="-1.91248">
        <ele>10</ele>
        <time>2023-10-30T20:22:28Z</time>
      </trkpt>
      <trkpt lat="46.67233" lon="-1.9109">
        <ele>10</ele>
        <time>2023-10-30T20:25:23Z</time>
      </trkpt>
      <trkpt lat="46.67142" lon="-1.90937">
        <ele>7</ele>
        <time>2023-10-30T20:28:28Z</time>
      </trkpt>
      <trkpt lat="46.67099" lon="-1.90896">
        <ele>6</ele>
        <time>2023-10-30T20:29:37Z</time>
      </trkpt>
      <trkpt lat="46.66996" lon="-1.9086">
        <ele>8</ele>
        <time>2023-10-30T20:31:58Z</time>
      </trkpt>
      <trkpt lat="46.66902" lon="-1.90877">
        <ele>6</ele>
        <time>2023-10-30T20:34:05Z</time>
      </trkpt>
      <trkpt lat="46.66831" lon="-1.90935">
        <ele>7</ele>
        <time>2023-10-30T20:35:53Z</time>
      </trkpt>
      <trkpt lat="46.66757" lon="-1.91046">
        <ele>7</ele>
        <time>2023-10-30T20:38:15Z</time>
      </trkpt>
      <trkpt lat="46.66696" lon="-1.91126">
        <ele>7</ele>
        <time>2023-10-30T20:40:05Z</time>
      </trkpt>
      <trkpt lat="46.66647" lon="-1.91132">
        <ele>6</ele>
        <time>2023-10-30T20:41:10Z</time>
      </trkpt>
      <trkpt lat="46.66467" lon="-1.90911">
        <ele>5</ele>
        <time>2023-10-30T20:46:24Z</time>
      </trkpt>
      <trkpt lat="46.66438" lon="-1.90896">
        <ele>4</ele>
        <time>2023-10-30T20:47:05Z</time>
      </trkpt>
      <trkpt lat="46.66395" lon="-1.90798">
        <ele>4</ele>
        <time>2023-10-30T20:48:52Z</time>
      </trkpt>
      <trkpt lat="46.66353" lon="-1.90746">
        <ele>4</ele>
        <time>2023-10-30T20:50:05Z</time>
      </trkpt>
      <trkpt lat="46.66308" lon="-1.90718">
        <ele>3</ele>
        <time>2023-10-30T20:51:11Z</time>
      </trkpt>
      <trkpt lat="46.66245" lon="-1.90613">
        <ele>3</ele>
        <time>2023-10-30T20:53:18Z</time>
      </trkpt>
      <trkpt lat="46.66174" lon="-1.906">
        <ele>5</ele>
        <time>2023-10-30T20:54:54Z</time>
      </trkpt>
      <trkpt lat="46.66133" lon="-1.90577">
        <ele>4</ele>
        <time>2023-10-30T20:55:53Z</time>
      </trkpt>
    </trkseg>
  </trk>
  <trk>
    <name><![CDATA[GR8S2J1_MoulinJodetMarines_21.6km-12420232]]></name>
    <extensions>
      <line xmlns="http://www.topografix.com/GPX/gpx_style/0/2">
        <color>FF0000</color>
        <width>4</width>
      </line>
    </extensions>
    <trkseg>
      <trkpt lat="46.85801" lon="-2.11987">
        <ele>14</ele>
        <time>2023-10-30T14:32:10Z</time>
      </trkpt>
      <trkpt lat="46.8574" lon="-2.12124">
        <ele>14</ele>
        <time>2023-10-30T14:34:39Z</time>
      </trkpt>
      <trkpt lat="46.85721" lon="-2.12253">
        <ele>13</ele>
        <time>2023-10-30T14:36:40Z</time>
      </trkpt>
      <trkpt lat="46.85716" lon="-2.12365">
        <ele>13</ele>
        <time>2023-10-30T14:38:22Z</time>
      </trkpt>
      <trkpt lat="46.85699" lon="-2.1241">
        <ele>13</ele>
        <time>2023-10-30T14:39:09Z</time>
      </trkpt>
      <trkpt lat="46.85564" lon="-2.12401">
        <ele>10</ele>
        <time>2023-10-30T14:42:09Z</time>
      </trkpt>
      <trkpt lat="46.85515" lon="-2.12433">
        <ele>12</ele>
        <time>2023-10-30T14:43:21Z</time>
      </trkpt>
      <trkpt lat="46.85499" lon="-2.12502">
        <ele>14</ele>
        <time>2023-10-30T14:44:27Z</time>
      </trkpt>
      <trkpt lat="46.85534" lon="-2.12732">
        <ele>10</ele>
        <time>2023-10-30T14:48:02Z</time>
      </trkpt>
      <trkpt lat="46.85505" lon="-2.12886">
        <ele>10</ele>
        <time>2023-10-30T14:50:28Z</time>
      </trkpt>
      <trkpt lat="46.85454" lon="-2.12966">
        <ele>10</ele>
        <time>2023-10-30T14:52:08Z</time>
      </trkpt>
      <trkpt lat="46.85391" lon="-2.13017">
        <ele>11</ele>
        <time>2023-10-30T14:53:44Z</time>
      </trkpt>
      <trkpt lat="46.8537" lon="-2.13084">
        <ele>11</ele>
        <time>2023-10-30T14:54:51Z</time>
      </trkpt>
      <trkpt lat="46.85294" lon="-2.13124">
        <ele>12</ele>
        <time>2023-10-30T14:56:39Z</time>
      </trkpt>
      <trkpt lat="46.85228" lon="-2.13105">
        <ele>11</ele>
        <time>2023-10-30T14:58:09Z</time>
      </trkpt>
      <trkpt lat="46.85251" lon="-2.13002">
        <ele>13</ele>
        <time>2023-10-30T14:59:48Z</time>
      </trkpt>
      <trkpt lat="46.85247" lon="-2.12961">
        <ele>14</ele>
        <time>2023-10-30T15:00:26Z</time>
      </trkpt>
      <trkpt lat="46.85179" lon="-2.12908">
        <ele>15</ele>
        <time>2023-10-30T15:02:08Z</time>
      </trkpt>
      <trkpt lat="46.85157" lon="-2.12955">
        <ele>13</ele>
        <time>2023-10-30T15:03:00Z</time>
      </trkpt>
      <trkpt lat="46.85107" lon="-2.12983">
        <ele>12</ele>
        <time>2023-10-30T15:04:12Z</time>
      </trkpt>
      <trkpt lat="46.85079" lon="-2.12978">
        <ele>12</ele>
        <time>2023-10-30T15:04:49Z</time>
      </trkpt>
      <trkpt lat="46.85041" lon="-2.13017">
        <ele>11</ele>
        <time>2023-10-30T15:05:51Z</time>
      </trkpt>
      <trkpt lat="46.85047" lon="-2.13036">
        <ele>10</ele>
        <time>2023-10-30T15:06:11Z</time>
      </trkpt>
      <trkpt lat="46.85009" lon="-2.13086">
        <ele>11</ele>
        <time>2023-10-30T15:07:19Z</time>
      </trkpt>
      <trkpt lat="46.85022" lon="-2.13105">
        <ele>10</ele>
        <time>2023-10-30T15:07:43Z</time>
      </trkpt>
      <trkpt lat="46.84996" lon="-2.13144">
        <ele>10</ele>
        <time>2023-10-30T15:08:33Z</time>
      </trkpt>
      <trkpt lat="46.84959" lon="-2.13137">
        <ele>10</ele>
        <time>2023-10-30T15:09:23Z</time>
      </trkpt>
      <trkpt lat="46.84936" lon="-2.13187">
        <ele>9</ele>
        <time>2023-10-30T15:10:18Z</time>
      </trkpt>
      <trkpt lat="46.8488" lon="-2.13122">
        <ele>10</ele>
        <time>2023-10-30T15:11:53Z</time>
      </trkpt>
      <trkpt lat="46.84836" lon="-2.13101">
        <ele>11</ele>
        <time>2023-10-30T15:12:55Z</time>
      </trkpt>
      <trkpt lat="46.84801" lon="-2.13122">
        <ele>11</ele>
        <time>2023-10-30T15:13:45Z</time>
      </trkpt>
      <trkpt lat="46.84768" lon="-2.13221">
        <ele>12</ele>
        <time>2023-10-30T15:15:26Z</time>
      </trkpt>
      <trkpt lat="46.84757" lon="-2.13302">
        <ele>11</ele>
        <time>2023-10-30T15:16:41Z</time>
      </trkpt>
      <trkpt lat="46.84729" lon="-2.13378">
        <ele>10</ele>
        <time>2023-10-30T15:18:00Z</time>
      </trkpt>
      <trkpt lat="46.84688" lon="-2.13421">
        <ele>10</ele>
        <time>2023-10-30T15:19:07Z</time>
      </trkpt>
      <trkpt lat="46.84645" lon="-2.13436">
        <ele>10</ele>
        <time>2023-10-30T15:20:06Z</time>
      </trkpt>
      <trkpt lat="46.84641" lon="-2.13472">
        <ele>10</ele>
        <time>2023-10-30T15:20:40Z</time>
      </trkpt>
      <trkpt lat="46.84558" lon="-2.13463">
        <ele>10</ele>
        <time>2023-10-30T15:22:31Z</time>
      </trkpt>
      <trkpt lat="46.84466" lon="-2.13466">
        <ele>10</ele>
        <time>2023-10-30T15:24:34Z</time>
      </trkpt>
      <trkpt lat="46.84406" lon="-2.13491">
        <ele>10</ele>
        <time>2023-10-30T15:25:57Z</time>
      </trkpt>
      <trkpt lat="46.84373" lon="-2.13573">
        <ele>10</ele>
        <time>2023-10-30T15:27:24Z</time>
      </trkpt>
      <trkpt lat="46.84281" lon="-2.1356">
        <ele>10</ele>
        <time>2023-10-30T15:29:27Z</time>
      </trkpt>
      <trkpt lat="46.84162" lon="-2.13605">
        <ele>9</ele>
        <time>2023-10-30T15:32:11Z</time>
      </trkpt>
      <trkpt lat="46.84159" lon="-2.1376">
        <ele>7</ele>
        <time>2023-10-30T15:34:33Z</time>
      </trkpt>
      <trkpt lat="46.84178" lon="-2.13905">
        <ele>8</ele>
        <time>2023-10-30T15:36:47Z</time>
      </trkpt>
      <trkpt lat="46.84056" lon="-2.13854">
        <ele>11</ele>
        <time>2023-10-30T15:39:37Z</time>
      </trkpt>
      <trkpt lat="46.83946" lon="-2.1385">
        <ele>9</ele>
        <time>2023-10-30T15:42:04Z</time>
      </trkpt>
      <trkpt lat="46.83913" lon="-2.13832">
        <ele>9</ele>
        <time>2023-10-30T15:42:51Z</time>
      </trkpt>
      <trkpt lat="46.83886" lon="-2.13811">
        <ele>8</ele>
        <time>2023-10-30T15:43:31Z</time>
      </trkpt>
      <trkpt lat="46.83817" lon="-2.13796">
        <ele>8</ele>
        <time>2023-10-30T15:45:04Z</time>
      </trkpt>
      <trkpt lat="46.83761" lon="-2.13762">
        <ele>7</ele>
        <time>2023-10-30T15:46:25Z</time>
      </trkpt>
      <trkpt lat="46.83698" lon="-2.13697">
        <ele>7</ele>
        <time>2023-10-30T15:48:08Z</time>
      </trkpt>
      <trkpt lat="46.83546" lon="-2.13772">
        <ele>7</ele>
        <time>2023-10-30T15:51:42Z</time>
      </trkpt>
      <trkpt lat="46.83493" lon="-2.13792">
        <ele>7</ele>
        <time>2023-10-30T15:52:55Z</time>
      </trkpt>
      <trkpt lat="46.83434" lon="-2.13785">
        <ele>7</ele>
        <time>2023-10-30T15:54:14Z</time>
      </trkpt>
      <trkpt lat="46.83364" lon="-2.13837">
        <ele>8</ele>
        <time>2023-10-30T15:55:59Z</time>
      </trkpt>
      <trkpt lat="46.83306" lon="-2.13862">
        <ele>8</ele>
        <time>2023-10-30T15:57:20Z</time>
      </trkpt>
      <trkpt lat="46.83111" lon="-2.14004">
        <ele>8</ele>
        <time>2023-10-30T16:02:11Z</time>
      </trkpt>
      <trkpt lat="46.82869" lon="-2.13935">
        <ele>8</ele>
        <time>2023-10-30T16:07:40Z</time>
      </trkpt>
      <trkpt lat="46.82768" lon="-2.13848">
        <ele>7</ele>
        <time>2023-10-30T16:10:16Z</time>
      </trkpt>
      <trkpt lat="46.82754" lon="-2.13897">
        <ele>8</ele>
        <time>2023-10-30T16:11:05Z</time>
      </trkpt>
      <trkpt lat="46.82719" lon="-2.13899">
        <ele>8</ele>
        <time>2023-10-30T16:11:51Z</time>
      </trkpt>
      <trkpt lat="46.82446" lon="-2.13856">
        <ele>6</ele>
        <time>2023-10-30T16:17:58Z</time>
      </trkpt>
      <trkpt lat="46.82383" lon="-2.13824">
        <ele>6</ele>
        <time>2023-10-30T16:19:27Z</time>
      </trkpt>
      <trkpt lat="46.82211" lon="-2.13779">
        <ele>6</ele>
        <time>2023-10-30T16:23:20Z</time>
      </trkpt>
      <trkpt lat="46.82229" lon="-2.13611">
        <ele>6</ele>
        <time>2023-10-30T16:25:55Z</time>
      </trkpt>
      <trkpt lat="46.82145" lon="-2.13562">
        <ele>8</ele>
        <time>2023-10-30T16:27:56Z</time>
      </trkpt>
      <trkpt lat="46.82138" lon="-2.13519">
        <ele>8</ele>
        <time>2023-10-30T16:28:36Z</time>
      </trkpt>
      <trkpt lat="46.81898" lon="-2.13397">
        <ele>9</ele>
        <time>2023-10-30T16:34:15Z</time>
      </trkpt>
      <trkpt lat="46.81757" lon="-2.13268">
        <ele>11</ele>
        <time>2023-10-30T16:37:57Z</time>
      </trkpt>
      <trkpt lat="46.81691" lon="-2.13109">
        <ele>12</ele>
        <time>2023-10-30T16:40:47Z</time>
      </trkpt>
      <trkpt lat="46.81195" lon="-2.12476">
        <ele>6</ele>
        <time>2023-10-30T16:55:26Z</time>
      </trkpt>
      <trkpt lat="46.81122" lon="-2.12502">
        <ele>6</ele>
        <time>2023-10-30T16:57:06Z</time>
      </trkpt>
      <trkpt lat="46.81086" lon="-2.12414">
        <ele>6</ele>
        <time>2023-10-30T16:58:40Z</time>
      </trkpt>
      <trkpt lat="46.8089" lon="-2.1215">
        <ele>5</ele>
        <time>2023-10-30T17:04:36Z</time>
      </trkpt>
      <trkpt lat="46.80741" lon="-2.11886">
        <ele>6</ele>
        <time>2023-10-30T17:09:48Z</time>
      </trkpt>
      <trkpt lat="46.8069" lon="-2.1182">
        <ele>7</ele>
        <time>2023-10-30T17:11:19Z</time>
      </trkpt>
      <trkpt lat="46.80627" lon="-2.11775">
        <ele>8</ele>
        <time>2023-10-30T17:12:53Z</time>
      </trkpt>
      <trkpt lat="46.80641" lon="-2.11712">
        <ele>8</ele>
        <time>2023-10-30T17:13:53Z</time>
      </trkpt>
      <trkpt lat="46.80583" lon="-2.11547">
        <ele>5</ele>
        <time>2023-10-30T17:16:43Z</time>
      </trkpt>
      <trkpt lat="46.80559" lon="-2.11466">
        <ele>5</ele>
        <time>2023-10-30T17:18:03Z</time>
      </trkpt>
      <trkpt lat="46.80555" lon="-2.11425">
        <ele>4</ele>
        <time>2023-10-30T17:18:41Z</time>
      </trkpt>
      <trkpt lat="46.80528" lon="-2.11416">
        <ele>5</ele>
        <time>2023-10-30T17:19:18Z</time>
      </trkpt>
      <trkpt lat="46.80386" lon="-2.112">
        <ele>6</ele>
        <time>2023-10-30T17:23:51Z</time>
      </trkpt>
      <trkpt lat="46.80392" lon="-2.10998">
        <ele>5</ele>
        <time>2023-10-30T17:26:56Z</time>
      </trkpt>
      <trkpt lat="46.80323" lon="-2.10831">
        <ele>9</ele>
        <time>2023-10-30T17:29:54Z</time>
      </trkpt>
      <trkpt lat="46.80327" lon="-2.10732">
        <ele>9</ele>
        <time>2023-10-30T17:31:25Z</time>
      </trkpt>
      <trkpt lat="46.80377" lon="-2.10586">
        <ele>9</ele>
        <time>2023-10-30T17:33:54Z</time>
      </trkpt>
      <trkpt lat="46.80439" lon="-2.10605">
        <ele>12</ele>
        <time>2023-10-30T17:35:19Z</time>
      </trkpt>
      <trkpt lat="46.805" lon="-2.10575">
        <ele>15</ele>
        <time>2023-10-30T17:36:44Z</time>
      </trkpt>
      <trkpt lat="46.8053" lon="-2.10521">
        <ele>15</ele>
        <time>2023-10-30T17:37:48Z</time>
      </trkpt>
      <trkpt lat="46.80494" lon="-2.10369">
        <ele>17</ele>
        <time>2023-10-30T17:40:15Z</time>
      </trkpt>
      <trkpt lat="46.80468" lon="-2.10341">
        <ele>17</ele>
        <time>2023-10-30T17:40:58Z</time>
      </trkpt>
      <trkpt lat="46.80467" lon="-2.10292">
        <ele>17</ele>
        <time>2023-10-30T17:41:43Z</time>
      </trkpt>
      <trkpt lat="46.80392" lon="-2.10234">
        <ele>13</ele>
        <time>2023-10-30T17:43:36Z</time>
      </trkpt>
      <trkpt lat="46.80355" lon="-2.1015">
        <ele>12</ele>
        <time>2023-10-30T17:45:07Z</time>
      </trkpt>
      <trkpt lat="46.8029" lon="-2.10088">
        <ele>12</ele>
        <time>2023-10-30T17:46:51Z</time>
      </trkpt>
      <trkpt lat="46.80287" lon="-2.10019">
        <ele>15</ele>
        <time>2023-10-30T17:47:54Z</time>
      </trkpt>
      <trkpt lat="46.80329" lon="-2.09891">
        <ele>23</ele>
        <time>2023-10-30T17:50:04Z</time>
      </trkpt>
      <trkpt lat="46.8034" lon="-2.09805">
        <ele>23</ele>
        <time>2023-10-30T17:51:24Z</time>
      </trkpt>
      <trkpt lat="46.80318" lon="-2.09725">
        <ele>19</ele>
        <time>2023-10-30T17:52:42Z</time>
      </trkpt>
      <trkpt lat="46.80321" lon="-2.09627">
        <ele>19</ele>
        <time>2023-10-30T17:54:12Z</time>
      </trkpt>
      <trkpt lat="46.80286" lon="-2.09545">
        <ele>20</ele>
        <time>2023-10-30T17:55:40Z</time>
      </trkpt>
      <trkpt lat="46.80249" lon="-2.09406">
        <ele>23</ele>
        <time>2023-10-30T17:57:56Z</time>
      </trkpt>
      <trkpt lat="46.80236" lon="-2.09329">
        <ele>20</ele>
        <time>2023-10-30T17:59:09Z</time>
      </trkpt>
      <trkpt lat="46.80211" lon="-2.09277">
        <ele>20</ele>
        <time>2023-10-30T18:00:07Z</time>
      </trkpt>
      <trkpt lat="46.80146" lon="-2.09275">
        <ele>23</ele>
        <time>2023-10-30T18:01:34Z</time>
      </trkpt>
      <trkpt lat="46.80133" lon="-2.09234">
        <ele>22</ele>
        <time>2023-10-30T18:02:15Z</time>
      </trkpt>
      <trkpt lat="46.80155" lon="-2.09146">
        <ele>22</ele>
        <time>2023-10-30T18:03:41Z</time>
      </trkpt>
      <trkpt lat="46.80129" lon="-2.09067">
        <ele>20</ele>
        <time>2023-10-30T18:05:01Z</time>
      </trkpt>
      <trkpt lat="46.80083" lon="-2.09017">
        <ele>22</ele>
        <time>2023-10-30T18:06:17Z</time>
      </trkpt>
      <trkpt lat="46.80011" lon="-2.09026">
        <ele>19</ele>
        <time>2023-10-30T18:07:54Z</time>
      </trkpt>
      <trkpt lat="46.80032" lon="-2.08841">
        <ele>23</ele>
        <time>2023-10-30T18:10:45Z</time>
      </trkpt>
      <trkpt lat="46.80035" lon="-2.08766">
        <ele>20</ele>
        <time>2023-10-30T18:11:54Z</time>
      </trkpt>
      <trkpt lat="46.80004" lon="-2.08678">
        <ele>21</ele>
        <time>2023-10-30T18:13:24Z</time>
      </trkpt>
      <trkpt lat="46.79955" lon="-2.0861">
        <ele>19</ele>
        <time>2023-10-30T18:14:54Z</time>
      </trkpt>
      <trkpt lat="46.79952" lon="-2.08567">
        <ele>18</ele>
        <time>2023-10-30T18:15:34Z</time>
      </trkpt>
      <trkpt lat="46.79973" lon="-2.08522">
        <ele>17</ele>
        <time>2023-10-30T18:16:23Z</time>
      </trkpt>
      <trkpt lat="46.79926" lon="-2.08429">
        <ele>19</ele>
        <time>2023-10-30T18:18:09Z</time>
      </trkpt>
      <trkpt lat="46.799" lon="-2.08329">
        <ele>20</ele>
        <time>2023-10-30T18:19:47Z</time>
      </trkpt>
      <trkpt lat="46.79857" lon="-2.08296">
        <ele>21</ele>
        <time>2023-10-30T18:20:52Z</time>
      </trkpt>
      <trkpt lat="46.79831" lon="-2.08189">
        <ele>18</ele>
        <time>2023-10-30T18:22:35Z</time>
      </trkpt>
      <trkpt lat="46.79797" lon="-2.0814">
        <ele>17</ele>
        <time>2023-10-30T18:23:39Z</time>
      </trkpt>
      <trkpt lat="46.79804" lon="-2.08063">
        <ele>16</ele>
        <time>2023-10-30T18:24:50Z</time>
      </trkpt>
      <trkpt lat="46.79775" lon="-2.08017">
        <ele>18</ele>
        <time>2023-10-30T18:25:47Z</time>
      </trkpt>
      <trkpt lat="46.7976" lon="-2.07949">
        <ele>16</ele>
        <time>2023-10-30T18:26:52Z</time>
      </trkpt>
      <trkpt lat="46.79695" lon="-2.07861">
        <ele>18</ele>
        <time>2023-10-30T18:28:51Z</time>
      </trkpt>
      <trkpt lat="46.79678" lon="-2.07822">
        <ele>18</ele>
        <time>2023-10-30T18:29:33Z</time>
      </trkpt>
      <trkpt lat="46.79641" lon="-2.07786">
        <ele>19</ele>
        <time>2023-10-30T18:30:32Z</time>
      </trkpt>
      <trkpt lat="46.7961" lon="-2.07623">
        <ele>16</ele>
        <time>2023-10-30T18:33:07Z</time>
      </trkpt>
      <trkpt lat="46.79529" lon="-2.07509">
        <ele>15</ele>
        <time>2023-10-30T18:35:37Z</time>
      </trkpt>
      <trkpt lat="46.79463" lon="-2.07402">
        <ele>17</ele>
        <time>2023-10-30T18:37:48Z</time>
      </trkpt>
      <trkpt lat="46.79402" lon="-2.07391">
        <ele>16</ele>
        <time>2023-10-30T18:39:10Z</time>
      </trkpt>
      <trkpt lat="46.79358" lon="-2.07354">
        <ele>16</ele>
        <time>2023-10-30T18:40:18Z</time>
      </trkpt>
      <trkpt lat="46.79311" lon="-2.07299">
        <ele>19</ele>
        <time>2023-10-30T18:41:39Z</time>
      </trkpt>
      <trkpt lat="46.79268" lon="-2.07277">
        <ele>19</ele>
        <time>2023-10-30T18:42:39Z</time>
      </trkpt>
      <trkpt lat="46.79243" lon="-2.07226">
        <ele>20</ele>
        <time>2023-10-30T18:43:37Z</time>
      </trkpt>
      <trkpt lat="46.79228" lon="-2.07148">
        <ele>20</ele>
        <time>2023-10-30T18:44:51Z</time>
      </trkpt>
      <trkpt lat="46.79199" lon="-2.07078">
        <ele>16</ele>
        <time>2023-10-30T18:46:05Z</time>
      </trkpt>
      <trkpt lat="46.79134" lon="-2.07015">
        <ele>13</ele>
        <time>2023-10-30T18:47:49Z</time>
      </trkpt>
      <trkpt lat="46.79136" lon="-2.06962">
        <ele>14</ele>
        <time>2023-10-30T18:48:38Z</time>
      </trkpt>
      <trkpt lat="46.79125" lon="-2.06942">
        <ele>14</ele>
        <time>2023-10-30T18:49:01Z</time>
      </trkpt>
      <trkpt lat="46.79037" lon="-2.0691">
        <ele>11</ele>
        <time>2023-10-30T18:51:02Z</time>
      </trkpt>
      <trkpt lat="46.79021" lon="-2.06835">
        <ele>11</ele>
        <time>2023-10-30T18:52:14Z</time>
      </trkpt>
      <trkpt lat="46.79002" lon="-2.06788">
        <ele>12</ele>
        <time>2023-10-30T18:53:04Z</time>
      </trkpt>
      <trkpt lat="46.7898" lon="-2.06672">
        <ele>14</ele>
        <time>2023-10-30T18:54:54Z</time>
      </trkpt>
      <trkpt lat="46.79086" lon="-2.06477">
        <ele>14</ele>
        <time>2023-10-30T18:58:42Z</time>
      </trkpt>
      <trkpt lat="46.7903" lon="-2.06262">
        <ele>11</ele>
        <time>2023-10-30T19:02:12Z</time>
      </trkpt>
      <trkpt lat="46.79034" lon="-2.05863">
        <ele>9</ele>
        <time>2023-10-30T19:08:16Z</time>
      </trkpt>
      <trkpt lat="46.78964" lon="-2.05882">
        <ele>13</ele>
        <time>2023-10-30T19:09:51Z</time>
      </trkpt>
      <trkpt lat="46.78923" lon="-2.0588">
        <ele>16</ele>
        <time>2023-10-30T19:10:46Z</time>
      </trkpt>
      <trkpt lat="46.78786" lon="-2.0591">
        <ele>13</ele>
        <time>2023-10-30T19:13:51Z</time>
      </trkpt>
      <trkpt lat="46.78789" lon="-2.05994">
        <ele>12</ele>
        <time>2023-10-30T19:15:08Z</time>
      </trkpt>
      <trkpt lat="46.78657" lon="-2.06144">
        <ele>9</ele>
        <time>2023-10-30T19:18:51Z</time>
      </trkpt>
      <trkpt lat="46.78585" lon="-2.0608">
        <ele>8</ele>
        <time>2023-10-30T19:20:43Z</time>
      </trkpt>
      <trkpt lat="46.78445" lon="-2.05882">
        <ele>11</ele>
        <time>2023-10-30T19:25:04Z</time>
      </trkpt>
      <trkpt lat="46.78382" lon="-2.05927">
        <ele>10</ele>
        <time>2023-10-30T19:26:37Z</time>
      </trkpt>
      <trkpt lat="46.78291" lon="-2.05947">
        <ele>9</ele>
        <time>2023-10-30T19:28:40Z</time>
      </trkpt>
      <trkpt lat="46.7819" lon="-2.05796">
        <ele>8</ele>
        <time>2023-10-30T19:31:53Z</time>
      </trkpt>
      <trkpt lat="46.78138" lon="-2.05751">
        <ele>7</ele>
        <time>2023-10-30T19:33:13Z</time>
      </trkpt>
      <trkpt lat="46.78253" lon="-2.05601">
        <ele>8</ele>
        <time>2023-10-30T19:36:39Z</time>
      </trkpt>
      <trkpt lat="46.78317" lon="-2.0555">
        <ele>10</ele>
        <time>2023-10-30T19:38:17Z</time>
      </trkpt>
      <trkpt lat="46.78426" lon="-2.05213">
        <ele>9</ele>
        <time>2023-10-30T19:43:57Z</time>
      </trkpt>
      <trkpt lat="46.78488" lon="-2.05149">
        <ele>12</ele>
        <time>2023-10-30T19:45:38Z</time>
      </trkpt>
      <trkpt lat="46.78599" lon="-2.05106">
        <ele>10</ele>
        <time>2023-10-30T19:48:12Z</time>
      </trkpt>
      <trkpt lat="46.78663" lon="-2.04953">
        <ele>9</ele>
        <time>2023-10-30T19:50:56Z</time>
      </trkpt>
      <trkpt lat="46.7872" lon="-2.04908">
        <ele>9</ele>
        <time>2023-10-30T19:52:22Z</time>
      </trkpt>
      <trkpt lat="46.78793" lon="-2.04872">
        <ele>8</ele>
        <time>2023-10-30T19:54:05Z</time>
      </trkpt>
      <trkpt lat="46.78586" lon="-2.04455">
        <ele>9</ele>
        <time>2023-10-30T20:01:55Z</time>
      </trkpt>
      <trkpt lat="46.78464" lon="-2.04357">
        <ele>11</ele>
        <time>2023-10-30T20:05:01Z</time>
      </trkpt>
      <trkpt lat="46.78404" lon="-2.04245">
        <ele>10</ele>
        <time>2023-10-30T20:07:11Z</time>
      </trkpt>
      <trkpt lat="46.78336" lon="-2.04138">
        <ele>11</ele>
        <time>2023-10-30T20:09:25Z</time>
      </trkpt>
      <trkpt lat="46.78294" lon="-2.04041">
        <ele>10</ele>
        <time>2023-10-30T20:11:09Z</time>
      </trkpt>
      <trkpt lat="46.78242" lon="-2.03846">
        <ele>10</ele>
        <time>2023-10-30T20:14:21Z</time>
      </trkpt>
      <trkpt lat="46.78116" lon="-2.03569">
        <ele>7</ele>
        <time>2023-10-30T20:19:25Z</time>
      </trkpt>
      <trkpt lat="46.77796" lon="-2.03408">
        <ele>7</ele>
        <time>2023-10-30T20:26:56Z</time>
      </trkpt>
      <trkpt lat="46.77728" lon="-2.03346">
        <ele>6</ele>
        <time>2023-10-30T20:28:43Z</time>
      </trkpt>
      <trkpt lat="46.77646" lon="-2.03301">
        <ele>9</ele>
        <time>2023-10-30T20:30:40Z</time>
      </trkpt>
      <trkpt lat="46.77555" lon="-2.03198">
        <ele>8</ele>
        <time>2023-10-30T20:33:14Z</time>
      </trkpt>
      <trkpt lat="46.77506" lon="-2.03174">
        <ele>7</ele>
        <time>2023-10-30T20:34:23Z</time>
      </trkpt>
      <trkpt lat="46.77433" lon="-2.03185">
        <ele>6</ele>
        <time>2023-10-30T20:36:01Z</time>
      </trkpt>
      <trkpt lat="46.76789" lon="-2.02123">
        <ele>4</ele>
        <time>2023-10-30T20:57:37Z</time>
      </trkpt>
      <trkpt lat="46.76683" lon="-2.01979">
        <ele>4</ele>
        <time>2023-10-30T21:00:50Z</time>
      </trkpt>
      <trkpt lat="46.7663" lon="-2.01861">
        <ele>4</ele>
        <time>2023-10-30T21:02:59Z</time>
      </trkpt>
      <trkpt lat="46.76596" lon="-2.01805">
        <ele>5</ele>
        <time>2023-10-30T21:04:08Z</time>
      </trkpt>
      <trkpt lat="46.7638" lon="-2.01614">
        <ele>10</ele>
        <time>2023-10-30T21:09:45Z</time>
      </trkpt>
      <trkpt lat="46.76335" lon="-2.01509">
        <ele>8</ele>
        <time>2023-10-30T21:11:38Z</time>
      </trkpt>
      <trkpt lat="46.76317" lon="-2.01419">
        <ele>6</ele>
        <time>2023-10-30T21:13:04Z</time>
      </trkpt>
      <trkpt lat="46.7628" lon="-2.01355">
        <ele>7</ele>
        <time>2023-10-30T21:14:20Z</time>
      </trkpt>
      <trkpt lat="46.76201" lon="-2.01275">
        <ele>5</ele>
        <time>2023-10-30T21:16:28Z</time>
      </trkpt>
      <trkpt lat="46.76173" lon="-2.01228">
        <ele>6</ele>
        <time>2023-10-30T21:17:25Z</time>
      </trkpt>
      <trkpt lat="46.76175" lon="-2.01164">
        <ele>5</ele>
        <time>2023-10-30T21:18:24Z</time>
      </trkpt>
      <trkpt lat="46.76138" lon="-2.01162">
        <ele>5</ele>
        <time>2023-10-30T21:19:13Z</time>
      </trkpt>
      <trkpt lat="46.76034" lon="-2.01145">
        <ele>6</ele>
        <time>2023-10-30T21:21:33Z</time>
      </trkpt>
      <trkpt lat="46.75779" lon="-2.01198">
        <ele>5</ele>
        <time>2023-10-30T21:27:17Z</time>
      </trkpt>
      <trkpt lat="46.75615" lon="-2.01258">
        <ele>3</ele>
        <time>2023-10-30T21:31:02Z</time>
      </trkpt>
      <trkpt lat="46.75362" lon="-2.01449">
        <ele>1</ele>
        <time>2023-10-30T21:37:22Z</time>
      </trkpt>
      <trkpt lat="46.75222" lon="-2.01524">
        <ele>1</ele>
        <time>2023-10-30T21:40:41Z</time>
      </trkpt>
      <trkpt lat="46.75121" lon="-2.01614">
        <ele>4</ele>
        <time>2023-10-30T21:43:19Z</time>
      </trkpt>
    </trkseg>
  </trk>
  <trk>
    <name><![CDATA[GR8S2J3_PetitPontTantouille_21.4km-12420300]]></name>
    <extensions>
      <line xmlns="http://www.topografix.com/GPX/gpx_style/0/2">
        <color>00FFFF</color>
        <width>4</width>
      </line>
    </extensions>
    <trkseg>
      <trkpt lat="46.66133" lon="-1.90577">
        <ele>4</ele>
        <time>2023-10-30T14:31:51Z</time>
      </trkpt>
      <trkpt lat="46.66115" lon="-1.90605">
        <ele>4</ele>
        <time>2023-10-30T14:32:26Z</time>
      </trkpt>
      <trkpt lat="46.65989" lon="-1.90695">
        <ele>6</ele>
        <time>2023-10-30T14:35:33Z</time>
      </trkpt>
      <trkpt lat="46.65912" lon="-1.90707">
        <ele>7</ele>
        <time>2023-10-30T14:37:17Z</time>
      </trkpt>
      <trkpt lat="46.6578" lon="-1.90862">
        <ele>9</ele>
        <time>2023-10-30T14:41:03Z</time>
      </trkpt>
      <trkpt lat="46.65528" lon="-1.90693">
        <ele>10</ele>
        <time>2023-10-30T14:47:13Z</time>
      </trkpt>
      <trkpt lat="46.65456" lon="-1.90671">
        <ele>10</ele>
        <time>2023-10-30T14:48:51Z</time>
      </trkpt>
      <trkpt lat="46.65317" lon="-1.90729">
        <ele>5</ele>
        <time>2023-10-30T14:52:04Z</time>
      </trkpt>
      <trkpt lat="46.65283" lon="-1.90727">
        <ele>6</ele>
        <time>2023-10-30T14:52:50Z</time>
      </trkpt>
      <trkpt lat="46.65233" lon="-1.90703">
        <ele>7</ele>
        <time>2023-10-30T14:54:00Z</time>
      </trkpt>
      <trkpt lat="46.65183" lon="-1.90714">
        <ele>6</ele>
        <time>2023-10-30T14:55:07Z</time>
      </trkpt>
      <trkpt lat="46.65142" lon="-1.90699">
        <ele>5</ele>
        <time>2023-10-30T14:56:04Z</time>
      </trkpt>
      <trkpt lat="46.65098" lon="-1.90656">
        <ele>4</ele>
        <time>2023-10-30T14:57:15Z</time>
      </trkpt>
      <trkpt lat="46.65055" lon="-1.90592">
        <ele>5</ele>
        <time>2023-10-30T14:58:37Z</time>
      </trkpt>
      <trkpt lat="46.64841" lon="-1.90399">
        <ele>5</ele>
        <time>2023-10-30T15:04:12Z</time>
      </trkpt>
      <trkpt lat="46.64794" lon="-1.90323">
        <ele>7</ele>
        <time>2023-10-30T15:05:46Z</time>
      </trkpt>
      <trkpt lat="46.64737" lon="-1.90201">
        <ele>9</ele>
        <time>2023-10-30T15:08:01Z</time>
      </trkpt>
      <trkpt lat="46.64703" lon="-1.90141">
        <ele>9</ele>
        <time>2023-10-30T15:09:13Z</time>
      </trkpt>
      <trkpt lat="46.64641" lon="-1.90089">
        <ele>9</ele>
        <time>2023-10-30T15:10:48Z</time>
      </trkpt>
      <trkpt lat="46.64597" lon="-1.89997">
        <ele>11</ele>
        <time>2023-10-30T15:12:31Z</time>
      </trkpt>
      <trkpt lat="46.6452" lon="-1.89956">
        <ele>10</ele>
        <time>2023-10-30T15:14:20Z</time>
      </trkpt>
      <trkpt lat="46.6443" lon="-1.89972">
        <ele>8</ele>
        <time>2023-10-30T15:16:21Z</time>
      </trkpt>
      <trkpt lat="46.64441" lon="-1.89774">
        <ele>12</ele>
        <time>2023-10-30T15:19:23Z</time>
      </trkpt>
      <trkpt lat="46.64392" lon="-1.89684">
        <ele>13</ele>
        <time>2023-10-30T15:21:08Z</time>
      </trkpt>
      <trkpt lat="46.64338" lon="-1.89536">
        <ele>15</ele>
        <time>2023-10-30T15:23:42Z</time>
      </trkpt>
      <trkpt lat="46.64292" lon="-1.89484">
        <ele>14</ele>
        <time>2023-10-30T15:25:00Z</time>
      </trkpt>
      <trkpt lat="46.64195" lon="-1.89444">
        <ele>12</ele>
        <time>2023-10-30T15:27:14Z</time>
      </trkpt>
      <trkpt lat="46.6408" lon="-1.89431">
        <ele>10</ele>
        <time>2023-10-30T15:29:48Z</time>
      </trkpt>
      <trkpt lat="46.63953" lon="-1.89448">
        <ele>5</ele>
        <time>2023-10-30T15:32:38Z</time>
      </trkpt>
      <trkpt lat="46.63921" lon="-1.89429">
        <ele>5</ele>
        <time>2023-10-30T15:33:24Z</time>
      </trkpt>
      <trkpt lat="46.63853" lon="-1.89324">
        <ele>7</ele>
        <time>2023-10-30T15:35:37Z</time>
      </trkpt>
      <trkpt lat="46.63797" lon="-1.89246">
        <ele>8</ele>
        <time>2023-10-30T15:37:20Z</time>
      </trkpt>
      <trkpt lat="46.63554" lon="-1.89079">
        <ele>7</ele>
        <time>2023-10-30T15:43:19Z</time>
      </trkpt>
      <trkpt lat="46.63412" lon="-1.88768">
        <ele>7</ele>
        <time>2023-10-30T15:49:01Z</time>
      </trkpt>
      <trkpt lat="46.63381" lon="-1.88731">
        <ele>7</ele>
        <time>2023-10-30T15:49:54Z</time>
      </trkpt>
      <trkpt lat="46.63325" lon="-1.88682">
        <ele>6</ele>
        <time>2023-10-30T15:51:22Z</time>
      </trkpt>
      <trkpt lat="46.63212" lon="-1.88482">
        <ele>5</ele>
        <time>2023-10-30T15:55:19Z</time>
      </trkpt>
      <trkpt lat="46.63156" lon="-1.88161">
        <ele>9</ele>
        <time>2023-10-30T16:00:22Z</time>
      </trkpt>
      <trkpt lat="46.63127" lon="-1.88081">
        <ele>9</ele>
        <time>2023-10-30T16:01:45Z</time>
      </trkpt>
      <trkpt lat="46.63066" lon="-1.87993">
        <ele>11</ele>
        <time>2023-10-30T16:03:40Z</time>
      </trkpt>
      <trkpt lat="46.62976" lon="-1.87733">
        <ele>9</ele>
        <time>2023-10-30T16:08:07Z</time>
      </trkpt>
      <trkpt lat="46.6287" lon="-1.87547">
        <ele>8</ele>
        <time>2023-10-30T16:11:48Z</time>
      </trkpt>
      <trkpt lat="46.62835" lon="-1.87506">
        <ele>9</ele>
        <time>2023-10-30T16:12:48Z</time>
      </trkpt>
      <trkpt lat="46.62746" lon="-1.87459">
        <ele>8</ele>
        <time>2023-10-30T16:14:54Z</time>
      </trkpt>
      <trkpt lat="46.62676" lon="-1.87379">
        <ele>7</ele>
        <time>2023-10-30T16:16:53Z</time>
      </trkpt>
      <trkpt lat="46.62441" lon="-1.87369">
        <ele>6</ele>
        <time>2023-10-30T16:22:07Z</time>
      </trkpt>
      <trkpt lat="46.62331" lon="-1.87332">
        <ele>8</ele>
        <time>2023-10-30T16:24:38Z</time>
      </trkpt>
      <trkpt lat="46.62164" lon="-1.87212">
        <ele>8</ele>
        <time>2023-10-30T16:28:46Z</time>
      </trkpt>
      <trkpt lat="46.62107" lon="-1.87223">
        <ele>7</ele>
        <time>2023-10-30T16:30:03Z</time>
      </trkpt>
      <trkpt lat="46.62046" lon="-1.87246">
        <ele>6</ele>
        <time>2023-10-30T16:31:27Z</time>
      </trkpt>
      <trkpt lat="46.61911" lon="-1.87154">
        <ele>7</ele>
        <time>2023-10-30T16:34:46Z</time>
      </trkpt>
      <trkpt lat="46.61783" lon="-1.87043">
        <ele>7</ele>
        <time>2023-10-30T16:38:05Z</time>
      </trkpt>
      <trkpt lat="46.61696" lon="-1.86944">
        <ele>5</ele>
        <time>2023-10-30T16:40:32Z</time>
      </trkpt>
      <trkpt lat="46.61671" lon="-1.86877">
        <ele>5</ele>
        <time>2023-10-30T16:41:42Z</time>
      </trkpt>
      <trkpt lat="46.61629" lon="-1.86671">
        <ele>4</ele>
        <time>2023-10-30T16:44:59Z</time>
      </trkpt>
      <trkpt lat="46.61644" lon="-1.86476">
        <ele>7</ele>
        <time>2023-10-30T16:47:59Z</time>
      </trkpt>
      <trkpt lat="46.61668" lon="-1.86422">
        <ele>9</ele>
        <time>2023-10-30T16:48:58Z</time>
      </trkpt>
      <trkpt lat="46.6164" lon="-1.86341">
        <ele>7</ele>
        <time>2023-10-30T16:50:21Z</time>
      </trkpt>
      <trkpt lat="46.61582" lon="-1.86375">
        <ele>5</ele>
        <time>2023-10-30T16:51:44Z</time>
      </trkpt>
      <trkpt lat="46.61526" lon="-1.86307">
        <ele>6</ele>
        <time>2023-10-30T16:53:22Z</time>
      </trkpt>
      <trkpt lat="46.61419" lon="-1.86223">
        <ele>7</ele>
        <time>2023-10-30T16:56:04Z</time>
      </trkpt>
      <trkpt lat="46.61268" lon="-1.86017">
        <ele>5</ele>
        <time>2023-10-30T17:00:40Z</time>
      </trkpt>
      <trkpt lat="46.61237" lon="-1.85807">
        <ele>10</ele>
        <time>2023-10-30T17:03:57Z</time>
      </trkpt>
      <trkpt lat="46.61199" lon="-1.85691">
        <ele>12</ele>
        <time>2023-10-30T17:05:55Z</time>
      </trkpt>
      <trkpt lat="46.61119" lon="-1.85605">
        <ele>11</ele>
        <time>2023-10-30T17:08:07Z</time>
      </trkpt>
      <trkpt lat="46.61072" lon="-1.85465">
        <ele>13</ele>
        <time>2023-10-30T17:10:30Z</time>
      </trkpt>
      <trkpt lat="46.61103" lon="-1.85459">
        <ele>13</ele>
        <time>2023-10-30T17:11:12Z</time>
      </trkpt>
      <trkpt lat="46.61124" lon="-1.85341">
        <ele>14</ele>
        <time>2023-10-30T17:13:04Z</time>
      </trkpt>
      <trkpt lat="46.61137" lon="-1.85021">
        <ele>21</ele>
        <time>2023-10-30T17:17:58Z</time>
      </trkpt>
      <trkpt lat="46.61122" lon="-1.84867">
        <ele>21</ele>
        <time>2023-10-30T17:20:20Z</time>
      </trkpt>
      <trkpt lat="46.61103" lon="-1.84796">
        <ele>21</ele>
        <time>2023-10-30T17:21:30Z</time>
      </trkpt>
      <trkpt lat="46.61074" lon="-1.84742">
        <ele>20</ele>
        <time>2023-10-30T17:22:33Z</time>
      </trkpt>
      <trkpt lat="46.61025" lon="-1.84459">
        <ele>8</ele>
        <time>2023-10-30T17:27:00Z</time>
      </trkpt>
      <trkpt lat="46.60984" lon="-1.84412">
        <ele>7</ele>
        <time>2023-10-30T17:28:10Z</time>
      </trkpt>
      <trkpt lat="46.61056" lon="-1.84262">
        <ele>7</ele>
        <time>2023-10-30T17:30:58Z</time>
      </trkpt>
      <trkpt lat="46.61018" lon="-1.84176">
        <ele>12</ele>
        <time>2023-10-30T17:32:31Z</time>
      </trkpt>
      <trkpt lat="46.61009" lon="-1.84129">
        <ele>15</ele>
        <time>2023-10-30T17:33:16Z</time>
      </trkpt>
      <trkpt lat="46.60988" lon="-1.8409">
        <ele>16</ele>
        <time>2023-10-30T17:34:02Z</time>
      </trkpt>
      <trkpt lat="46.60956" lon="-1.84073">
        <ele>16</ele>
        <time>2023-10-30T17:34:47Z</time>
      </trkpt>
      <trkpt lat="46.60947" lon="-1.83987">
        <ele>20</ele>
        <time>2023-10-30T17:36:07Z</time>
      </trkpt>
      <trkpt lat="46.60917" lon="-1.83987">
        <ele>20</ele>
        <time>2023-10-30T17:36:47Z</time>
      </trkpt>
      <trkpt lat="46.60853" lon="-1.84028">
        <ele>18</ele>
        <time>2023-10-30T17:38:20Z</time>
      </trkpt>
      <trkpt lat="46.60879" lon="-1.84165">
        <ele>13</ele>
        <time>2023-10-30T17:40:30Z</time>
      </trkpt>
      <trkpt lat="46.60861" lon="-1.84202">
        <ele>12</ele>
        <time>2023-10-30T17:41:12Z</time>
      </trkpt>
      <trkpt lat="46.60829" lon="-1.84223">
        <ele>11</ele>
        <time>2023-10-30T17:41:59Z</time>
      </trkpt>
      <trkpt lat="46.60791" lon="-1.84298">
        <ele>8</ele>
        <time>2023-10-30T17:43:24Z</time>
      </trkpt>
      <trkpt lat="46.60715" lon="-1.84324">
        <ele>5</ele>
        <time>2023-10-30T17:45:08Z</time>
      </trkpt>
      <trkpt lat="46.60628" lon="-1.84326">
        <ele>5</ele>
        <time>2023-10-30T17:47:05Z</time>
      </trkpt>
      <trkpt lat="46.60564" lon="-1.84302">
        <ele>5</ele>
        <time>2023-10-30T17:48:33Z</time>
      </trkpt>
      <trkpt lat="46.60503" lon="-1.8432">
        <ele>8</ele>
        <time>2023-10-30T17:49:56Z</time>
      </trkpt>
      <trkpt lat="46.60379" lon="-1.84377">
        <ele>5</ele>
        <time>2023-10-30T17:52:49Z</time>
      </trkpt>
      <trkpt lat="46.60382" lon="-1.84444">
        <ele>5</ele>
        <time>2023-10-30T17:53:51Z</time>
      </trkpt>
      <trkpt lat="46.60369" lon="-1.84487">
        <ele>5</ele>
        <time>2023-10-30T17:54:34Z</time>
      </trkpt>
      <trkpt lat="46.60303" lon="-1.84502">
        <ele>6</ele>
        <time>2023-10-30T17:56:03Z</time>
      </trkpt>
      <trkpt lat="46.60313" lon="-1.84594">
        <ele>6</ele>
        <time>2023-10-30T17:57:29Z</time>
      </trkpt>
      <trkpt lat="46.60236" lon="-1.84633">
        <ele>9</ele>
        <time>2023-10-30T17:59:17Z</time>
      </trkpt>
      <trkpt lat="46.60253" lon="-1.84753">
        <ele>8</ele>
        <time>2023-10-30T18:01:10Z</time>
      </trkpt>
      <trkpt lat="46.5999" lon="-1.84725">
        <ele>5</ele>
        <time>2023-10-30T18:07:02Z</time>
      </trkpt>
      <trkpt lat="46.59912" lon="-1.84669">
        <ele>6</ele>
        <time>2023-10-30T18:08:58Z</time>
      </trkpt>
      <trkpt lat="46.59565" lon="-1.84813">
        <ele>2</ele>
        <time>2023-10-30T18:16:59Z</time>
      </trkpt>
      <trkpt lat="46.59486" lon="-1.84676">
        <ele>1</ele>
        <time>2023-10-30T18:19:43Z</time>
      </trkpt>
      <trkpt lat="46.59434" lon="-1.84665">
        <ele>2</ele>
        <time>2023-10-30T18:20:53Z</time>
      </trkpt>
      <trkpt lat="46.59386" lon="-1.84695">
        <ele>3</ele>
        <time>2023-10-30T18:22:03Z</time>
      </trkpt>
      <trkpt lat="46.59362" lon="-1.84783">
        <ele>3</ele>
        <time>2023-10-30T18:23:30Z</time>
      </trkpt>
      <trkpt lat="46.59372" lon="-1.84912">
        <ele>3</ele>
        <time>2023-10-30T18:25:29Z</time>
      </trkpt>
      <trkpt lat="46.59353" lon="-1.84955">
        <ele>3</ele>
        <time>2023-10-30T18:26:16Z</time>
      </trkpt>
      <trkpt lat="46.58962" lon="-1.84822">
        <ele>4</ele>
        <time>2023-10-30T18:35:12Z</time>
      </trkpt>
      <trkpt lat="46.58923" lon="-1.84764">
        <ele>3</ele>
        <time>2023-10-30T18:36:26Z</time>
      </trkpt>
      <trkpt lat="46.5888" lon="-1.84789">
        <ele>3</ele>
        <time>2023-10-30T18:37:28Z</time>
      </trkpt>
      <trkpt lat="46.58839" lon="-1.8477">
        <ele>4</ele>
        <time>2023-10-30T18:38:25Z</time>
      </trkpt>
      <trkpt lat="46.58657" lon="-1.84626">
        <ele>1</ele>
        <time>2023-10-30T18:43:02Z</time>
      </trkpt>
      <trkpt lat="46.58585" lon="-1.84671">
        <ele>1</ele>
        <time>2023-10-30T18:44:46Z</time>
      </trkpt>
      <trkpt lat="46.58554" lon="-1.84706">
        <ele>3</ele>
        <time>2023-10-30T18:45:39Z</time>
      </trkpt>
      <trkpt lat="46.58524" lon="-1.84671">
        <ele>2</ele>
        <time>2023-10-30T18:46:30Z</time>
      </trkpt>
      <trkpt lat="46.58454" lon="-1.84747">
        <ele>1</ele>
        <time>2023-10-30T18:48:26Z</time>
      </trkpt>
      <trkpt lat="46.58165" lon="-1.84624">
        <ele>6</ele>
        <time>2023-10-30T18:55:08Z</time>
      </trkpt>
      <trkpt lat="46.582" lon="-1.84485">
        <ele>6</ele>
        <time>2023-10-30T18:57:24Z</time>
      </trkpt>
      <trkpt lat="46.58271" lon="-1.84384">
        <ele>4</ele>
        <time>2023-10-30T18:59:37Z</time>
      </trkpt>
      <trkpt lat="46.58314" lon="-1.84227">
        <ele>8</ele>
        <time>2023-10-30T19:02:12Z</time>
      </trkpt>
      <trkpt lat="46.58361" lon="-1.84189">
        <ele>8</ele>
        <time>2023-10-30T19:03:23Z</time>
      </trkpt>
      <trkpt lat="46.58406" lon="-1.84107">
        <ele>8</ele>
        <time>2023-10-30T19:05:00Z</time>
      </trkpt>
      <trkpt lat="46.58547" lon="-1.83981">
        <ele>8</ele>
        <time>2023-10-30T19:08:40Z</time>
      </trkpt>
      <trkpt lat="46.58532" lon="-1.8392">
        <ele>11</ele>
        <time>2023-10-30T19:09:40Z</time>
      </trkpt>
      <trkpt lat="46.5852" lon="-1.83835">
        <ele>11</ele>
        <time>2023-10-30T19:10:59Z</time>
      </trkpt>
      <trkpt lat="46.58501" lon="-1.83781">
        <ele>12</ele>
        <time>2023-10-30T19:11:55Z</time>
      </trkpt>
      <trkpt lat="46.58464" lon="-1.83751">
        <ele>12</ele>
        <time>2023-10-30T19:12:52Z</time>
      </trkpt>
      <trkpt lat="46.58403" lon="-1.83757">
        <ele>12</ele>
        <time>2023-10-30T19:14:13Z</time>
      </trkpt>
      <trkpt lat="46.58368" lon="-1.83781">
        <ele>13</ele>
        <time>2023-10-30T19:15:05Z</time>
      </trkpt>
      <trkpt lat="46.58314" lon="-1.83781">
        <ele>13</ele>
        <time>2023-10-30T19:16:17Z</time>
      </trkpt>
      <trkpt lat="46.5828" lon="-1.83805">
        <ele>12</ele>
        <time>2023-10-30T19:17:07Z</time>
      </trkpt>
      <trkpt lat="46.58203" lon="-1.83813">
        <ele>13</ele>
        <time>2023-10-30T19:18:50Z</time>
      </trkpt>
      <trkpt lat="46.58163" lon="-1.83717">
        <ele>14</ele>
        <time>2023-10-30T19:20:33Z</time>
      </trkpt>
      <trkpt lat="46.58117" lon="-1.83751">
        <ele>15</ele>
        <time>2023-10-30T19:21:42Z</time>
      </trkpt>
      <trkpt lat="46.58054" lon="-1.83661">
        <ele>17</ele>
        <time>2023-10-30T19:23:40Z</time>
      </trkpt>
      <trkpt lat="46.58035" lon="-1.83517">
        <ele>17</ele>
        <time>2023-10-30T19:25:54Z</time>
      </trkpt>
      <trkpt lat="46.58013" lon="-1.83455">
        <ele>18</ele>
        <time>2023-10-30T19:26:58Z</time>
      </trkpt>
      <trkpt lat="46.57973" lon="-1.83414">
        <ele>18</ele>
        <time>2023-10-30T19:28:04Z</time>
      </trkpt>
      <trkpt lat="46.57918" lon="-1.83242">
        <ele>14</ele>
        <time>2023-10-30T19:30:58Z</time>
      </trkpt>
      <trkpt lat="46.57896" lon="-1.83197">
        <ele>14</ele>
        <time>2023-10-30T19:31:48Z</time>
      </trkpt>
      <trkpt lat="46.57865" lon="-1.83182">
        <ele>14</ele>
        <time>2023-10-30T19:32:32Z</time>
      </trkpt>
      <trkpt lat="46.57843" lon="-1.83099">
        <ele>15</ele>
        <time>2023-10-30T19:33:54Z</time>
      </trkpt>
      <trkpt lat="46.57821" lon="-1.83154">
        <ele>14</ele>
        <time>2023-10-30T19:34:52Z</time>
      </trkpt>
      <trkpt lat="46.5778" lon="-1.83215">
        <ele>16</ele>
        <time>2023-10-30T19:36:10Z</time>
      </trkpt>
      <trkpt lat="46.57752" lon="-1.83305">
        <ele>17</ele>
        <time>2023-10-30T19:37:41Z</time>
      </trkpt>
      <trkpt lat="46.57694" lon="-1.83414">
        <ele>17</ele>
        <time>2023-10-30T19:39:47Z</time>
      </trkpt>
      <trkpt lat="46.57635" lon="-1.8344">
        <ele>16</ele>
        <time>2023-10-30T19:41:10Z</time>
      </trkpt>
      <trkpt lat="46.57586" lon="-1.83483">
        <ele>15</ele>
        <time>2023-10-30T19:42:26Z</time>
      </trkpt>
      <trkpt lat="46.57541" lon="-1.83502">
        <ele>14</ele>
        <time>2023-10-30T19:43:28Z</time>
      </trkpt>
      <trkpt lat="46.57594" lon="-1.83302">
        <ele>15</ele>
        <time>2023-10-30T19:46:45Z</time>
      </trkpt>
      <trkpt lat="46.57573" lon="-1.8327">
        <ele>15</ele>
        <time>2023-10-30T19:47:26Z</time>
      </trkpt>
      <trkpt lat="46.57468" lon="-1.83288">
        <ele>14</ele>
        <time>2023-10-30T19:49:47Z</time>
      </trkpt>
      <trkpt lat="46.57412" lon="-1.83236">
        <ele>14</ele>
        <time>2023-10-30T19:51:15Z</time>
      </trkpt>
      <trkpt lat="46.57352" lon="-1.83225">
        <ele>14</ele>
        <time>2023-10-30T19:52:36Z</time>
      </trkpt>
      <trkpt lat="46.57274" lon="-1.83139">
        <ele>13</ele>
        <time>2023-10-30T19:54:47Z</time>
      </trkpt>
      <trkpt lat="46.57181" lon="-1.8309">
        <ele>16</ele>
        <time>2023-10-30T19:56:59Z</time>
      </trkpt>
      <trkpt lat="46.57129" lon="-1.83019">
        <ele>18</ele>
        <time>2023-10-30T19:58:34Z</time>
      </trkpt>
      <trkpt lat="46.57101" lon="-1.82929">
        <ele>15</ele>
        <time>2023-10-30T20:00:04Z</time>
      </trkpt>
      <trkpt lat="46.57106" lon="-1.82854">
        <ele>15</ele>
        <time>2023-10-30T20:01:14Z</time>
      </trkpt>
      <trkpt lat="46.57145" lon="-1.82755">
        <ele>16</ele>
        <time>2023-10-30T20:02:58Z</time>
      </trkpt>
      <trkpt lat="46.57039" lon="-1.82706">
        <ele>14</ele>
        <time>2023-10-30T20:05:27Z</time>
      </trkpt>
      <trkpt lat="46.56945" lon="-1.82762">
        <ele>12</ele>
        <time>2023-10-30T20:07:42Z</time>
      </trkpt>
      <trkpt lat="46.56889" lon="-1.82742">
        <ele>12</ele>
        <time>2023-10-30T20:08:59Z</time>
      </trkpt>
      <trkpt lat="46.5683" lon="-1.82712">
        <ele>12</ele>
        <time>2023-10-30T20:10:23Z</time>
      </trkpt>
      <trkpt lat="46.568" lon="-1.82734">
        <ele>11</ele>
        <time>2023-10-30T20:11:07Z</time>
      </trkpt>
      <trkpt lat="46.56641" lon="-1.82974">
        <ele>14</ele>
        <time>2023-10-30T20:16:13Z</time>
      </trkpt>
      <trkpt lat="46.5661" lon="-1.83049">
        <ele>15</ele>
        <time>2023-10-30T20:17:34Z</time>
      </trkpt>
      <trkpt lat="46.56588" lon="-1.82893">
        <ele>15</ele>
        <time>2023-10-30T20:20:00Z</time>
      </trkpt>
      <trkpt lat="46.56524" lon="-1.82757">
        <ele>19</ele>
        <time>2023-10-30T20:22:31Z</time>
      </trkpt>
      <trkpt lat="46.56513" lon="-1.82601">
        <ele>18</ele>
        <time>2023-10-30T20:24:55Z</time>
      </trkpt>
      <trkpt lat="46.56459" lon="-1.82455">
        <ele>15</ele>
        <time>2023-10-30T20:27:27Z</time>
      </trkpt>
      <trkpt lat="46.56448" lon="-1.8232">
        <ele>15</ele>
        <time>2023-10-30T20:29:32Z</time>
      </trkpt>
      <trkpt lat="46.56383" lon="-1.82184">
        <ele>16</ele>
        <time>2023-10-30T20:32:03Z</time>
      </trkpt>
      <trkpt lat="46.56316" lon="-1.82148">
        <ele>16</ele>
        <time>2023-10-30T20:33:39Z</time>
      </trkpt>
      <trkpt lat="46.56265" lon="-1.82142">
        <ele>16</ele>
        <time>2023-10-30T20:34:47Z</time>
      </trkpt>
      <trkpt lat="46.56206" lon="-1.82247">
        <ele>11</ele>
        <time>2023-10-30T20:36:52Z</time>
      </trkpt>
      <trkpt lat="46.56179" lon="-1.82343">
        <ele>11</ele>
        <time>2023-10-30T20:38:27Z</time>
      </trkpt>
      <trkpt lat="46.56135" lon="-1.82408">
        <ele>10</ele>
        <time>2023-10-30T20:39:50Z</time>
      </trkpt>
      <trkpt lat="46.56101" lon="-1.82481">
        <ele>10</ele>
        <time>2023-10-30T20:41:11Z</time>
      </trkpt>
      <trkpt lat="46.56021" lon="-1.82549">
        <ele>11</ele>
        <time>2023-10-30T20:43:15Z</time>
      </trkpt>
      <trkpt lat="46.55968" lon="-1.8262">
        <ele>12</ele>
        <time>2023-10-30T20:44:51Z</time>
      </trkpt>
      <trkpt lat="46.55916" lon="-1.82624">
        <ele>11</ele>
        <time>2023-10-30T20:46:01Z</time>
      </trkpt>
      <trkpt lat="46.5586" lon="-1.82575">
        <ele>12</ele>
        <time>2023-10-30T20:47:28Z</time>
      </trkpt>
      <trkpt lat="46.55824" lon="-1.82564">
        <ele>12</ele>
        <time>2023-10-30T20:48:17Z</time>
      </trkpt>
      <trkpt lat="46.55781" lon="-1.8247">
        <ele>12</ele>
        <time>2023-10-30T20:50:00Z</time>
      </trkpt>
      <trkpt lat="46.55683" lon="-1.82393">
        <ele>9</ele>
        <time>2023-10-30T20:52:29Z</time>
      </trkpt>
      <trkpt lat="46.55648" lon="-1.82318">
        <ele>9</ele>
        <time>2023-10-30T20:53:52Z</time>
      </trkpt>
      <trkpt lat="46.55573" lon="-1.82268">
        <ele>9</ele>
        <time>2023-10-30T20:55:42Z</time>
      </trkpt>
      <trkpt lat="46.55515" lon="-1.82251">
        <ele>11</ele>
        <time>2023-10-30T20:57:01Z</time>
      </trkpt>
      <trkpt lat="46.55449" lon="-1.8227">
        <ele>11</ele>
        <time>2023-10-30T20:58:31Z</time>
      </trkpt>
      <trkpt lat="46.55406" lon="-1.82234">
        <ele>10</ele>
        <time>2023-10-30T20:59:37Z</time>
      </trkpt>
      <trkpt lat="46.55356" lon="-1.82234">
        <ele>10</ele>
        <time>2023-10-30T21:00:44Z</time>
      </trkpt>
      <trkpt lat="46.55326" lon="-1.822">
        <ele>11</ele>
        <time>2023-10-30T21:01:35Z</time>
      </trkpt>
      <trkpt lat="46.55263" lon="-1.82073">
        <ele>11</ele>
        <time>2023-10-30T21:03:59Z</time>
      </trkpt>
      <trkpt lat="46.55179" lon="-1.82021">
        <ele>13</ele>
        <time>2023-10-30T21:06:00Z</time>
      </trkpt>
      <trkpt lat="46.55146" lon="-1.81925">
        <ele>14</ele>
        <time>2023-10-30T21:07:39Z</time>
      </trkpt>
      <trkpt lat="46.5521" lon="-1.81796">
        <ele>12</ele>
        <time>2023-10-30T21:10:05Z</time>
      </trkpt>
      <trkpt lat="46.55362" lon="-1.81616">
        <ele>8</ele>
        <time>2023-10-30T21:14:26Z</time>
      </trkpt>
      <trkpt lat="46.5544" lon="-1.81644">
        <ele>14</ele>
        <time>2023-10-30T21:16:14Z</time>
      </trkpt>
      <trkpt lat="46.55492" lon="-1.81627">
        <ele>15</ele>
        <time>2023-10-30T21:17:25Z</time>
      </trkpt>
      <trkpt lat="46.55582" lon="-1.815">
        <ele>14</ele>
        <time>2023-10-30T21:20:12Z</time>
      </trkpt>
      <trkpt lat="46.55674" lon="-1.81266">
        <ele>13</ele>
        <time>2023-10-30T21:24:19Z</time>
      </trkpt>
      <trkpt lat="46.55627" lon="-1.81174">
        <ele>8</ele>
        <time>2023-10-30T21:26:05Z</time>
      </trkpt>
      <trkpt lat="46.55648" lon="-1.81118">
        <ele>8</ele>
        <time>2023-10-30T21:27:03Z</time>
      </trkpt>
      <trkpt lat="46.55772" lon="-1.80882">
        <ele>6</ele>
        <time>2023-10-30T21:31:36Z</time>
      </trkpt>
      <trkpt lat="46.55846" lon="-1.80874">
        <ele>6</ele>
        <time>2023-10-30T21:33:15Z</time>
      </trkpt>
      <trkpt lat="46.55922" lon="-1.80929">
        <ele>6</ele>
        <time>2023-10-30T21:35:08Z</time>
      </trkpt>
      <trkpt lat="46.56011" lon="-1.8097">
        <ele>5</ele>
        <time>2023-10-30T21:37:13Z</time>
      </trkpt>
      <trkpt lat="46.56058" lon="-1.81009">
        <ele>5</ele>
        <time>2023-10-30T21:38:25Z</time>
      </trkpt>
      <trkpt lat="46.56125" lon="-1.8109">
        <ele>11</ele>
        <time>2023-10-30T21:40:21Z</time>
      </trkpt>
    </trkseg>
  </trk>
</gpx>